<?xml version="1.0" encoding="UTF-8" standalone="no" ?>
<gpx xmlns="http://www.topografix.com/GPX/1/1" xmlns:xsi="http://www.w3.org/2001/XMLSchema-instance" xsi:schemaLocation="http://www.topografix.com/GPX/1/1 http://www.topografix.com/GPX/1/1/gpx.xsd" version="1.1" creator="VisuGPX - https://www.visugpx.com">
  <metadata>
    <name>VTT 30-05-2014 Leguillac de l\'Auche</name>
    <desc><![CDATA[Rando d\'entraînement environ 20 km]]></desc>
  </metadata>
  <trk>
    <name><![CDATA[VTT 30-05-2014 Leguillac de l\'Auche_1]]></name>
    <trkseg>
      <trkpt lat="45.18593" lon="0.63299">
        <ele>79</ele>
        <time>2014-05-30T13:01:10Z</time>
      </trkpt>
      <trkpt lat="45.18593" lon="0.63299">
        <ele>89.3</ele>
        <time>2014-05-30T13:01:19Z</time>
      </trkpt>
      <trkpt lat="45.18599" lon="0.63331">
        <ele>80.1</ele>
        <time>2014-05-30T13:01:56Z</time>
      </trkpt>
      <trkpt lat="45.18584" lon="0.6337">
        <ele>80.6</ele>
        <time>2014-05-30T13:02:07Z</time>
      </trkpt>
      <trkpt lat="45.18554" lon="0.63373">
        <ele>79.39</ele>
        <time>2014-05-30T13:02:16Z</time>
      </trkpt>
      <trkpt lat="45.18534" lon="0.63357">
        <ele>80.5</ele>
        <time>2014-05-30T13:02:22Z</time>
      </trkpt>
      <trkpt lat="45.18508" lon="0.63339">
        <ele>80.69</ele>
        <time>2014-05-30T13:02:29Z</time>
      </trkpt>
      <trkpt lat="45.18495" lon="0.63326">
        <ele>80.8</ele>
        <time>2014-05-30T13:02:34Z</time>
      </trkpt>
      <trkpt lat="45.18499" lon="0.63273">
        <ele>78.69</ele>
        <time>2014-05-30T13:02:42Z</time>
      </trkpt>
      <trkpt lat="45.18497" lon="0.6323">
        <ele>78.4</ele>
        <time>2014-05-30T13:02:48Z</time>
      </trkpt>
      <trkpt lat="45.18494" lon="0.63196">
        <ele>81</ele>
        <time>2014-05-30T13:02:53Z</time>
      </trkpt>
      <trkpt lat="45.185" lon="0.63158">
        <ele>79.69</ele>
        <time>2014-05-30T13:02:59Z</time>
      </trkpt>
      <trkpt lat="45.18506" lon="0.63122">
        <ele>74.19</ele>
        <time>2014-05-30T13:03:05Z</time>
      </trkpt>
      <trkpt lat="45.1851" lon="0.63096">
        <ele>75.3</ele>
        <time>2014-05-30T13:03:11Z</time>
      </trkpt>
      <trkpt lat="45.18511" lon="0.63093">
        <ele>75.69</ele>
        <time>2014-05-30T13:03:12Z</time>
      </trkpt>
      <trkpt lat="45.18511" lon="0.63093">
        <ele>83</ele>
        <time>2014-05-30T13:03:19Z</time>
      </trkpt>
      <trkpt lat="45.18511" lon="0.63093">
        <ele>83</ele>
        <time>2014-05-30T13:03:48Z</time>
      </trkpt>
      <trkpt lat="45.18515" lon="0.6307">
        <ele>79.39</ele>
        <time>2014-05-30T13:03:48Z</time>
      </trkpt>
      <trkpt lat="45.18515" lon="0.6303">
        <ele>78.5</ele>
        <time>2014-05-30T13:03:56Z</time>
      </trkpt>
      <trkpt lat="45.18509" lon="0.63">
        <ele>79.3</ele>
        <time>2014-05-30T13:04:02Z</time>
      </trkpt>
      <trkpt lat="45.18502" lon="0.62963">
        <ele>81.39</ele>
        <time>2014-05-30T13:04:08Z</time>
      </trkpt>
      <trkpt lat="45.18499" lon="0.62946">
        <ele>81.5</ele>
        <time>2014-05-30T13:04:11Z</time>
      </trkpt>
      <trkpt lat="45.18494" lon="0.62923">
        <ele>80.39</ele>
        <time>2014-05-30T13:04:15Z</time>
      </trkpt>
      <trkpt lat="45.18494" lon="0.62882">
        <ele>78.59</ele>
        <time>2014-05-30T13:04:22Z</time>
      </trkpt>
      <trkpt lat="45.18506" lon="0.62852">
        <ele>78.3</ele>
        <time>2014-05-30T13:04:27Z</time>
      </trkpt>
      <trkpt lat="45.18518" lon="0.62813">
        <ele>77.8</ele>
        <time>2014-05-30T13:04:32Z</time>
      </trkpt>
      <trkpt lat="45.18511" lon="0.62786">
        <ele>75</ele>
        <time>2014-05-30T13:04:37Z</time>
      </trkpt>
      <trkpt lat="45.18469" lon="0.62775">
        <ele>72.5</ele>
        <time>2014-05-30T13:04:43Z</time>
      </trkpt>
      <trkpt lat="45.18441" lon="0.62769">
        <ele>72.8</ele>
        <time>2014-05-30T13:04:47Z</time>
      </trkpt>
      <trkpt lat="45.18412" lon="0.62759">
        <ele>72.8</ele>
        <time>2014-05-30T13:04:54Z</time>
      </trkpt>
      <trkpt lat="45.18392" lon="0.62748">
        <ele>71.4</ele>
        <time>2014-05-30T13:05:00Z</time>
      </trkpt>
      <trkpt lat="45.18364" lon="0.62756">
        <ele>73.09</ele>
        <time>2014-05-30T13:05:08Z</time>
      </trkpt>
      <trkpt lat="45.18357" lon="0.62756">
        <ele>73.5</ele>
        <time>2014-05-30T13:05:12Z</time>
      </trkpt>
      <trkpt lat="45.18357" lon="0.62756">
        <ele>84</ele>
        <time>2014-05-30T13:05:18Z</time>
      </trkpt>
      <trkpt lat="45.18357" lon="0.62756">
        <ele>84</ele>
        <time>2014-05-30T13:05:55Z</time>
      </trkpt>
      <trkpt lat="45.18346" lon="0.6273">
        <ele>73</ele>
        <time>2014-05-30T13:05:55Z</time>
      </trkpt>
      <trkpt lat="45.1834" lon="0.62703">
        <ele>74.59</ele>
        <time>2014-05-30T13:06:00Z</time>
      </trkpt>
      <trkpt lat="45.18329" lon="0.62665">
        <ele>76.9</ele>
        <time>2014-05-30T13:06:07Z</time>
      </trkpt>
      <trkpt lat="45.18319" lon="0.6264">
        <ele>77.3</ele>
        <time>2014-05-30T13:06:12Z</time>
      </trkpt>
      <trkpt lat="45.18308" lon="0.62618">
        <ele>77.5</ele>
        <time>2014-05-30T13:06:17Z</time>
      </trkpt>
      <trkpt lat="45.18298" lon="0.62601">
        <ele>79.6</ele>
        <time>2014-05-30T13:06:21Z</time>
      </trkpt>
      <trkpt lat="45.1828" lon="0.62574">
        <ele>80.8</ele>
        <time>2014-05-30T13:06:27Z</time>
      </trkpt>
      <trkpt lat="45.18268" lon="0.62555">
        <ele>79.19</ele>
        <time>2014-05-30T13:06:32Z</time>
      </trkpt>
      <trkpt lat="45.18246" lon="0.62529">
        <ele>75.9</ele>
        <time>2014-05-30T13:06:40Z</time>
      </trkpt>
      <trkpt lat="45.18222" lon="0.62511">
        <ele>75.69</ele>
        <time>2014-05-30T13:06:47Z</time>
      </trkpt>
      <trkpt lat="45.182" lon="0.62494">
        <ele>75.3</ele>
        <time>2014-05-30T13:06:53Z</time>
      </trkpt>
      <trkpt lat="45.18189" lon="0.62485">
        <ele>76.5</ele>
        <time>2014-05-30T13:06:56Z</time>
      </trkpt>
      <trkpt lat="45.18168" lon="0.62468">
        <ele>77.59</ele>
        <time>2014-05-30T13:07:01Z</time>
      </trkpt>
      <trkpt lat="45.18149" lon="0.62451">
        <ele>79</ele>
        <time>2014-05-30T13:07:06Z</time>
      </trkpt>
      <trkpt lat="45.18122" lon="0.62433">
        <ele>80.8</ele>
        <time>2014-05-30T13:07:12Z</time>
      </trkpt>
      <trkpt lat="45.181" lon="0.62413">
        <ele>81.69</ele>
        <time>2014-05-30T13:07:17Z</time>
      </trkpt>
      <trkpt lat="45.18076" lon="0.62384">
        <ele>83.19</ele>
        <time>2014-05-30T13:07:23Z</time>
      </trkpt>
      <trkpt lat="45.18063" lon="0.62367">
        <ele>82.6</ele>
        <time>2014-05-30T13:07:26Z</time>
      </trkpt>
      <trkpt lat="45.18041" lon="0.62334">
        <ele>81.8</ele>
        <time>2014-05-30T13:07:31Z</time>
      </trkpt>
      <trkpt lat="45.18023" lon="0.62302">
        <ele>81</ele>
        <time>2014-05-30T13:07:35Z</time>
      </trkpt>
      <trkpt lat="45.18011" lon="0.62276">
        <ele>80.8</ele>
        <time>2014-05-30T13:07:38Z</time>
      </trkpt>
      <trkpt lat="45.17983" lon="0.6223">
        <ele>81.19</ele>
        <time>2014-05-30T13:07:44Z</time>
      </trkpt>
      <trkpt lat="45.17958" lon="0.62187">
        <ele>81.39</ele>
        <time>2014-05-30T13:07:49Z</time>
      </trkpt>
      <trkpt lat="45.17935" lon="0.62146">
        <ele>82.39</ele>
        <time>2014-05-30T13:07:54Z</time>
      </trkpt>
      <trkpt lat="45.17921" lon="0.62121">
        <ele>84.19</ele>
        <time>2014-05-30T13:07:57Z</time>
      </trkpt>
      <trkpt lat="45.17906" lon="0.62095">
        <ele>85.1</ele>
        <time>2014-05-30T13:08:00Z</time>
      </trkpt>
      <trkpt lat="45.17891" lon="0.62067">
        <ele>84.1</ele>
        <time>2014-05-30T13:08:03Z</time>
      </trkpt>
      <trkpt lat="45.17863" lon="0.62014">
        <ele>81</ele>
        <time>2014-05-30T13:08:09Z</time>
      </trkpt>
      <trkpt lat="45.17833" lon="0.61959">
        <ele>79.6</ele>
        <time>2014-05-30T13:08:15Z</time>
      </trkpt>
      <trkpt lat="45.17817" lon="0.61931">
        <ele>79.69</ele>
        <time>2014-05-30T13:08:18Z</time>
      </trkpt>
      <trkpt lat="45.17791" lon="0.61885">
        <ele>79.19</ele>
        <time>2014-05-30T13:08:23Z</time>
      </trkpt>
      <trkpt lat="45.17758" lon="0.61827">
        <ele>78.59</ele>
        <time>2014-05-30T13:08:29Z</time>
      </trkpt>
      <trkpt lat="45.17732" lon="0.61778">
        <ele>77.69</ele>
        <time>2014-05-30T13:08:34Z</time>
      </trkpt>
      <trkpt lat="45.17715" lon="0.61748">
        <ele>77.59</ele>
        <time>2014-05-30T13:08:37Z</time>
      </trkpt>
      <trkpt lat="45.17686" lon="0.61693">
        <ele>79.1</ele>
        <time>2014-05-30T13:08:43Z</time>
      </trkpt>
      <trkpt lat="45.17661" lon="0.61649">
        <ele>78.59</ele>
        <time>2014-05-30T13:08:49Z</time>
      </trkpt>
      <trkpt lat="45.17634" lon="0.61601">
        <ele>79.19</ele>
        <time>2014-05-30T13:08:55Z</time>
      </trkpt>
      <trkpt lat="45.17623" lon="0.61579">
        <ele>80.39</ele>
        <time>2014-05-30T13:08:58Z</time>
      </trkpt>
      <trkpt lat="45.17611" lon="0.61559">
        <ele>78.9</ele>
        <time>2014-05-30T13:09:01Z</time>
      </trkpt>
      <trkpt lat="45.176" lon="0.61537">
        <ele>78.09</ele>
        <time>2014-05-30T13:09:04Z</time>
      </trkpt>
      <trkpt lat="45.17581" lon="0.61505">
        <ele>76.9</ele>
        <time>2014-05-30T13:09:09Z</time>
      </trkpt>
      <trkpt lat="45.17559" lon="0.61463">
        <ele>77.4</ele>
        <time>2014-05-30T13:09:15Z</time>
      </trkpt>
      <trkpt lat="45.17539" lon="0.6143">
        <ele>77.5</ele>
        <time>2014-05-30T13:09:20Z</time>
      </trkpt>
      <trkpt lat="45.17529" lon="0.61408">
        <ele>78</ele>
        <time>2014-05-30T13:09:23Z</time>
      </trkpt>
      <trkpt lat="45.17519" lon="0.61389">
        <ele>78.19</ele>
        <time>2014-05-30T13:09:26Z</time>
      </trkpt>
      <trkpt lat="45.17505" lon="0.6136">
        <ele>78.19</ele>
        <time>2014-05-30T13:09:31Z</time>
      </trkpt>
      <trkpt lat="45.17487" lon="0.61326">
        <ele>77.69</ele>
        <time>2014-05-30T13:09:37Z</time>
      </trkpt>
      <trkpt lat="45.17467" lon="0.61292">
        <ele>76.3</ele>
        <time>2014-05-30T13:09:42Z</time>
      </trkpt>
      <trkpt lat="45.17449" lon="0.61261">
        <ele>76.9</ele>
        <time>2014-05-30T13:09:47Z</time>
      </trkpt>
      <trkpt lat="45.17425" lon="0.61222">
        <ele>77.9</ele>
        <time>2014-05-30T13:09:53Z</time>
      </trkpt>
      <trkpt lat="45.17407" lon="0.61188">
        <ele>78.59</ele>
        <time>2014-05-30T13:09:58Z</time>
      </trkpt>
      <trkpt lat="45.17395" lon="0.61152">
        <ele>76.5</ele>
        <time>2014-05-30T13:10:04Z</time>
      </trkpt>
      <trkpt lat="45.17427" lon="0.61122">
        <ele>77.09</ele>
        <time>2014-05-30T13:10:11Z</time>
      </trkpt>
      <trkpt lat="45.17466" lon="0.61091">
        <ele>74.19</ele>
        <time>2014-05-30T13:10:17Z</time>
      </trkpt>
      <trkpt lat="45.17486" lon="0.61049">
        <ele>74.3</ele>
        <time>2014-05-30T13:10:23Z</time>
      </trkpt>
      <trkpt lat="45.17474" lon="0.61012">
        <ele>73.19</ele>
        <time>2014-05-30T13:10:28Z</time>
      </trkpt>
      <trkpt lat="45.17457" lon="0.60979">
        <ele>71.9</ele>
        <time>2014-05-30T13:10:33Z</time>
      </trkpt>
      <trkpt lat="45.17446" lon="0.60956">
        <ele>73.8</ele>
        <time>2014-05-30T13:10:36Z</time>
      </trkpt>
      <trkpt lat="45.17435" lon="0.60936">
        <ele>73.4</ele>
        <time>2014-05-30T13:10:39Z</time>
      </trkpt>
      <trkpt lat="45.17419" lon="0.60902">
        <ele>74.19</ele>
        <time>2014-05-30T13:10:44Z</time>
      </trkpt>
      <trkpt lat="45.17397" lon="0.60861">
        <ele>68.59</ele>
        <time>2014-05-30T13:10:50Z</time>
      </trkpt>
      <trkpt lat="45.1738" lon="0.60827">
        <ele>66</ele>
        <time>2014-05-30T13:10:55Z</time>
      </trkpt>
      <trkpt lat="45.17362" lon="0.6079">
        <ele>65.09</ele>
        <time>2014-05-30T13:11:00Z</time>
      </trkpt>
      <trkpt lat="45.17337" lon="0.60751">
        <ele>64.4</ele>
        <time>2014-05-30T13:11:06Z</time>
      </trkpt>
      <trkpt lat="45.17325" lon="0.60731">
        <ele>64.9</ele>
        <time>2014-05-30T13:11:09Z</time>
      </trkpt>
      <trkpt lat="45.17299" lon="0.60692">
        <ele>63.09</ele>
        <time>2014-05-30T13:11:15Z</time>
      </trkpt>
      <trkpt lat="45.17288" lon="0.60671">
        <ele>63.19</ele>
        <time>2014-05-30T13:11:18Z</time>
      </trkpt>
      <trkpt lat="45.17278" lon="0.60627">
        <ele>67.5</ele>
        <time>2014-05-30T13:11:23Z</time>
      </trkpt>
      <trkpt lat="45.17275" lon="0.60584">
        <ele>70.59</ele>
        <time>2014-05-30T13:11:28Z</time>
      </trkpt>
      <trkpt lat="45.17276" lon="0.60547">
        <ele>74.19</ele>
        <time>2014-05-30T13:11:33Z</time>
      </trkpt>
      <trkpt lat="45.17267" lon="0.60497">
        <ele>75.09</ele>
        <time>2014-05-30T13:11:39Z</time>
      </trkpt>
      <trkpt lat="45.17258" lon="0.60446">
        <ele>78.8</ele>
        <time>2014-05-30T13:11:45Z</time>
      </trkpt>
      <trkpt lat="45.17248" lon="0.60397">
        <ele>79</ele>
        <time>2014-05-30T13:11:51Z</time>
      </trkpt>
      <trkpt lat="45.1724" lon="0.60357">
        <ele>80</ele>
        <time>2014-05-30T13:11:56Z</time>
      </trkpt>
      <trkpt lat="45.17235" lon="0.60303">
        <ele>79.6</ele>
        <time>2014-05-30T13:12:02Z</time>
      </trkpt>
      <trkpt lat="45.17226" lon="0.6027">
        <ele>78.4</ele>
        <time>2014-05-30T13:12:06Z</time>
      </trkpt>
      <trkpt lat="45.17216" lon="0.60222">
        <ele>76.09</ele>
        <time>2014-05-30T13:12:12Z</time>
      </trkpt>
      <trkpt lat="45.17206" lon="0.60185">
        <ele>76.3</ele>
        <time>2014-05-30T13:12:17Z</time>
      </trkpt>
      <trkpt lat="45.17201" lon="0.60162">
        <ele>77.3</ele>
        <time>2014-05-30T13:12:20Z</time>
      </trkpt>
      <trkpt lat="45.17196" lon="0.60142">
        <ele>76.9</ele>
        <time>2014-05-30T13:12:23Z</time>
      </trkpt>
      <trkpt lat="45.17192" lon="0.60124">
        <ele>75.69</ele>
        <time>2014-05-30T13:12:26Z</time>
      </trkpt>
      <trkpt lat="45.17186" lon="0.60097">
        <ele>76.59</ele>
        <time>2014-05-30T13:12:32Z</time>
      </trkpt>
      <trkpt lat="45.17186" lon="0.60097">
        <ele>76.59</ele>
        <time>2014-05-30T13:12:38Z</time>
      </trkpt>
      <trkpt lat="45.17186" lon="0.60097">
        <ele>76</ele>
        <time>2014-05-30T13:12:38Z</time>
      </trkpt>
      <trkpt lat="45.17186" lon="0.60097">
        <ele>76</ele>
        <time>2014-05-30T13:12:46Z</time>
      </trkpt>
      <trkpt lat="45.17202" lon="0.60144">
        <ele>69.4</ele>
        <time>2014-05-30T13:12:46Z</time>
      </trkpt>
      <trkpt lat="45.1721" lon="0.6017">
        <ele>71.59</ele>
        <time>2014-05-30T13:12:50Z</time>
      </trkpt>
      <trkpt lat="45.17219" lon="0.60211">
        <ele>68.3</ele>
        <time>2014-05-30T13:12:56Z</time>
      </trkpt>
      <trkpt lat="45.17232" lon="0.6024">
        <ele>70.19</ele>
        <time>2014-05-30T13:13:01Z</time>
      </trkpt>
      <trkpt lat="45.17252" lon="0.60236">
        <ele>71.8</ele>
        <time>2014-05-30T13:13:07Z</time>
      </trkpt>
      <trkpt lat="45.17274" lon="0.60213">
        <ele>72.5</ele>
        <time>2014-05-30T13:13:13Z</time>
      </trkpt>
      <trkpt lat="45.17294" lon="0.60198">
        <ele>70.4</ele>
        <time>2014-05-30T13:13:18Z</time>
      </trkpt>
      <trkpt lat="45.17315" lon="0.60181">
        <ele>70.5</ele>
        <time>2014-05-30T13:13:23Z</time>
      </trkpt>
      <trkpt lat="45.17337" lon="0.60165">
        <ele>69.69</ele>
        <time>2014-05-30T13:13:28Z</time>
      </trkpt>
      <trkpt lat="45.17355" lon="0.60153">
        <ele>68.69</ele>
        <time>2014-05-30T13:13:32Z</time>
      </trkpt>
      <trkpt lat="45.17384" lon="0.60137">
        <ele>67.4</ele>
        <time>2014-05-30T13:13:38Z</time>
      </trkpt>
      <trkpt lat="45.17415" lon="0.60122">
        <ele>66.4</ele>
        <time>2014-05-30T13:13:44Z</time>
      </trkpt>
      <trkpt lat="45.17409" lon="0.60087">
        <ele>67.4</ele>
        <time>2014-05-30T13:13:50Z</time>
      </trkpt>
      <trkpt lat="45.174" lon="0.60053">
        <ele>65.9</ele>
        <time>2014-05-30T13:13:56Z</time>
      </trkpt>
      <trkpt lat="45.1739" lon="0.60025">
        <ele>61.19</ele>
        <time>2014-05-30T13:14:01Z</time>
      </trkpt>
      <trkpt lat="45.17375" lon="0.59995">
        <ele>63.9</ele>
        <time>2014-05-30T13:14:05Z</time>
      </trkpt>
      <trkpt lat="45.17357" lon="0.59959">
        <ele>68.19</ele>
        <time>2014-05-30T13:14:10Z</time>
      </trkpt>
      <trkpt lat="45.17347" lon="0.59937">
        <ele>70.09</ele>
        <time>2014-05-30T13:14:13Z</time>
      </trkpt>
      <trkpt lat="45.17339" lon="0.59915">
        <ele>71.59</ele>
        <time>2014-05-30T13:14:16Z</time>
      </trkpt>
      <trkpt lat="45.17322" lon="0.59878">
        <ele>74.3</ele>
        <time>2014-05-30T13:14:21Z</time>
      </trkpt>
      <trkpt lat="45.17306" lon="0.59847">
        <ele>74.69</ele>
        <time>2014-05-30T13:14:26Z</time>
      </trkpt>
      <trkpt lat="45.17286" lon="0.59808">
        <ele>75.9</ele>
        <time>2014-05-30T13:14:32Z</time>
      </trkpt>
      <trkpt lat="45.17269" lon="0.59777">
        <ele>75.8</ele>
        <time>2014-05-30T13:14:37Z</time>
      </trkpt>
      <trkpt lat="45.17251" lon="0.59749">
        <ele>75.8</ele>
        <time>2014-05-30T13:14:42Z</time>
      </trkpt>
      <trkpt lat="45.1724" lon="0.59728">
        <ele>75.3</ele>
        <time>2014-05-30T13:14:46Z</time>
      </trkpt>
      <trkpt lat="45.17228" lon="0.59696">
        <ele>77.59</ele>
        <time>2014-05-30T13:14:50Z</time>
      </trkpt>
      <trkpt lat="45.17208" lon="0.59644">
        <ele>76.59</ele>
        <time>2014-05-30T13:14:57Z</time>
      </trkpt>
      <trkpt lat="45.17196" lon="0.59598">
        <ele>77.19</ele>
        <time>2014-05-30T13:15:03Z</time>
      </trkpt>
      <trkpt lat="45.17181" lon="0.59548">
        <ele>75.4</ele>
        <time>2014-05-30T13:15:10Z</time>
      </trkpt>
      <trkpt lat="45.1717" lon="0.59512">
        <ele>74</ele>
        <time>2014-05-30T13:15:15Z</time>
      </trkpt>
      <trkpt lat="45.17159" lon="0.59484">
        <ele>74</ele>
        <time>2014-05-30T13:15:19Z</time>
      </trkpt>
      <trkpt lat="45.17143" lon="0.59444">
        <ele>73</ele>
        <time>2014-05-30T13:15:25Z</time>
      </trkpt>
      <trkpt lat="45.17134" lon="0.59418">
        <ele>69.8</ele>
        <time>2014-05-30T13:15:29Z</time>
      </trkpt>
      <trkpt lat="45.17103" lon="0.59413">
        <ele>70.19</ele>
        <time>2014-05-30T13:15:36Z</time>
      </trkpt>
      <trkpt lat="45.17098" lon="0.59417">
        <ele>70.69</ele>
        <time>2014-05-30T13:15:38Z</time>
      </trkpt>
      <trkpt lat="45.17098" lon="0.59417">
        <ele>77</ele>
        <time>2014-05-30T13:15:44Z</time>
      </trkpt>
      <trkpt lat="45.17098" lon="0.59417">
        <ele>77</ele>
        <time>2014-05-30T13:15:49Z</time>
      </trkpt>
      <trkpt lat="45.17112" lon="0.59392">
        <ele>75.8</ele>
        <time>2014-05-30T13:15:49Z</time>
      </trkpt>
      <trkpt lat="45.17133" lon="0.59372">
        <ele>76.3</ele>
        <time>2014-05-30T13:15:55Z</time>
      </trkpt>
      <trkpt lat="45.17151" lon="0.59355">
        <ele>76.9</ele>
        <time>2014-05-30T13:16:00Z</time>
      </trkpt>
      <trkpt lat="45.17167" lon="0.59339">
        <ele>78.09</ele>
        <time>2014-05-30T13:16:05Z</time>
      </trkpt>
      <trkpt lat="45.1719" lon="0.59317">
        <ele>80.6</ele>
        <time>2014-05-30T13:16:12Z</time>
      </trkpt>
      <trkpt lat="45.17206" lon="0.59303">
        <ele>81.1</ele>
        <time>2014-05-30T13:16:16Z</time>
      </trkpt>
      <trkpt lat="45.1723" lon="0.59279">
        <ele>81.19</ele>
        <time>2014-05-30T13:16:22Z</time>
      </trkpt>
      <trkpt lat="45.17242" lon="0.59266">
        <ele>81.8</ele>
        <time>2014-05-30T13:16:25Z</time>
      </trkpt>
      <trkpt lat="45.17265" lon="0.59246">
        <ele>81</ele>
        <time>2014-05-30T13:16:31Z</time>
      </trkpt>
      <trkpt lat="45.17258" lon="0.59208">
        <ele>78.4</ele>
        <time>2014-05-30T13:16:37Z</time>
      </trkpt>
      <trkpt lat="45.17249" lon="0.59188">
        <ele>78.5</ele>
        <time>2014-05-30T13:16:40Z</time>
      </trkpt>
      <trkpt lat="45.17242" lon="0.59167">
        <ele>79.3</ele>
        <time>2014-05-30T13:16:43Z</time>
      </trkpt>
      <trkpt lat="45.17233" lon="0.59143">
        <ele>80.89</ele>
        <time>2014-05-30T13:16:47Z</time>
      </trkpt>
      <trkpt lat="45.17223" lon="0.59112">
        <ele>84.39</ele>
        <time>2014-05-30T13:16:53Z</time>
      </trkpt>
      <trkpt lat="45.17206" lon="0.59075">
        <ele>85.6</ele>
        <time>2014-05-30T13:17:01Z</time>
      </trkpt>
      <trkpt lat="45.17187" lon="0.59054">
        <ele>83.1</ele>
        <time>2014-05-30T13:17:07Z</time>
      </trkpt>
      <trkpt lat="45.17172" lon="0.59041">
        <ele>82.1</ele>
        <time>2014-05-30T13:17:10Z</time>
      </trkpt>
      <trkpt lat="45.1715" lon="0.59028">
        <ele>82.1</ele>
        <time>2014-05-30T13:17:13Z</time>
      </trkpt>
      <trkpt lat="45.17111" lon="0.59005">
        <ele>76.9</ele>
        <time>2014-05-30T13:17:18Z</time>
      </trkpt>
      <trkpt lat="45.17065" lon="0.58972">
        <ele>73.59</ele>
        <time>2014-05-30T13:17:24Z</time>
      </trkpt>
      <trkpt lat="45.17042" lon="0.58941">
        <ele>72.19</ele>
        <time>2014-05-30T13:17:28Z</time>
      </trkpt>
      <trkpt lat="45.17013" lon="0.58896">
        <ele>71.69</ele>
        <time>2014-05-30T13:17:34Z</time>
      </trkpt>
      <trkpt lat="45.16983" lon="0.58853">
        <ele>73</ele>
        <time>2014-05-30T13:17:40Z</time>
      </trkpt>
      <trkpt lat="45.16954" lon="0.58801">
        <ele>72.4</ele>
        <time>2014-05-30T13:17:47Z</time>
      </trkpt>
      <trkpt lat="45.16931" lon="0.58769">
        <ele>71.19</ele>
        <time>2014-05-30T13:17:52Z</time>
      </trkpt>
      <trkpt lat="45.16901" lon="0.58741">
        <ele>71.4</ele>
        <time>2014-05-30T13:17:57Z</time>
      </trkpt>
      <trkpt lat="45.16869" lon="0.5871">
        <ele>68.3</ele>
        <time>2014-05-30T13:18:03Z</time>
      </trkpt>
      <trkpt lat="45.16842" lon="0.5869">
        <ele>69.19</ele>
        <time>2014-05-30T13:18:08Z</time>
      </trkpt>
      <trkpt lat="45.1681" lon="0.58673">
        <ele>69.59</ele>
        <time>2014-05-30T13:18:13Z</time>
      </trkpt>
      <trkpt lat="45.16782" lon="0.58655">
        <ele>67</ele>
        <time>2014-05-30T13:18:18Z</time>
      </trkpt>
      <trkpt lat="45.16753" lon="0.58626">
        <ele>66.3</ele>
        <time>2014-05-30T13:18:24Z</time>
      </trkpt>
      <trkpt lat="45.16734" lon="0.58601">
        <ele>66.09</ele>
        <time>2014-05-30T13:18:29Z</time>
      </trkpt>
      <trkpt lat="45.16713" lon="0.58581">
        <ele>62.19</ele>
        <time>2014-05-30T13:18:33Z</time>
      </trkpt>
      <trkpt lat="45.1668" lon="0.58555">
        <ele>66</ele>
        <time>2014-05-30T13:18:39Z</time>
      </trkpt>
      <trkpt lat="45.16653" lon="0.5854">
        <ele>73.4</ele>
        <time>2014-05-30T13:18:46Z</time>
      </trkpt>
      <trkpt lat="45.16638" lon="0.5856">
        <ele>77</ele>
        <time>2014-05-30T13:18:52Z</time>
      </trkpt>
      <trkpt lat="45.16607" lon="0.58548">
        <ele>75.8</ele>
        <time>2014-05-30T13:18:59Z</time>
      </trkpt>
      <trkpt lat="45.16581" lon="0.58527">
        <ele>74.9</ele>
        <time>2014-05-30T13:19:05Z</time>
      </trkpt>
      <trkpt lat="45.16555" lon="0.58505">
        <ele>75.69</ele>
        <time>2014-05-30T13:19:10Z</time>
      </trkpt>
      <trkpt lat="45.16529" lon="0.58483">
        <ele>76.3</ele>
        <time>2014-05-30T13:19:15Z</time>
      </trkpt>
      <trkpt lat="45.16508" lon="0.58447">
        <ele>73.8</ele>
        <time>2014-05-30T13:19:21Z</time>
      </trkpt>
      <trkpt lat="45.16492" lon="0.58404">
        <ele>70.19</ele>
        <time>2014-05-30T13:19:27Z</time>
      </trkpt>
      <trkpt lat="45.16475" lon="0.58356">
        <ele>73.19</ele>
        <time>2014-05-30T13:19:33Z</time>
      </trkpt>
      <trkpt lat="45.16469" lon="0.58328">
        <ele>75</ele>
        <time>2014-05-30T13:19:36Z</time>
      </trkpt>
      <trkpt lat="45.16457" lon="0.5829">
        <ele>78.09</ele>
        <time>2014-05-30T13:19:41Z</time>
      </trkpt>
      <trkpt lat="45.16448" lon="0.58244">
        <ele>76.69</ele>
        <time>2014-05-30T13:19:46Z</time>
      </trkpt>
      <trkpt lat="45.16439" lon="0.58187">
        <ele>76.4</ele>
        <time>2014-05-30T13:19:52Z</time>
      </trkpt>
      <trkpt lat="45.1643" lon="0.58145">
        <ele>76.09</ele>
        <time>2014-05-30T13:19:57Z</time>
      </trkpt>
      <trkpt lat="45.16416" lon="0.58091">
        <ele>75.19</ele>
        <time>2014-05-30T13:20:03Z</time>
      </trkpt>
      <trkpt lat="45.16403" lon="0.58046">
        <ele>76.4</ele>
        <time>2014-05-30T13:20:08Z</time>
      </trkpt>
      <trkpt lat="45.16393" lon="0.57997">
        <ele>74.9</ele>
        <time>2014-05-30T13:20:14Z</time>
      </trkpt>
      <trkpt lat="45.1638" lon="0.57951">
        <ele>74.59</ele>
        <time>2014-05-30T13:20:20Z</time>
      </trkpt>
      <trkpt lat="45.16372" lon="0.57903">
        <ele>76.8</ele>
        <time>2014-05-30T13:20:26Z</time>
      </trkpt>
      <trkpt lat="45.16357" lon="0.57857">
        <ele>78.09</ele>
        <time>2014-05-30T13:20:32Z</time>
      </trkpt>
      <trkpt lat="45.16344" lon="0.57807">
        <ele>79.19</ele>
        <time>2014-05-30T13:20:38Z</time>
      </trkpt>
      <trkpt lat="45.16337" lon="0.57784">
        <ele>80.39</ele>
        <time>2014-05-30T13:20:41Z</time>
      </trkpt>
      <trkpt lat="45.16326" lon="0.57737">
        <ele>80.1</ele>
        <time>2014-05-30T13:20:47Z</time>
      </trkpt>
      <trkpt lat="45.16315" lon="0.57691">
        <ele>81.5</ele>
        <time>2014-05-30T13:20:53Z</time>
      </trkpt>
      <trkpt lat="45.16308" lon="0.57647">
        <ele>80.69</ele>
        <time>2014-05-30T13:20:58Z</time>
      </trkpt>
      <trkpt lat="45.16303" lon="0.57624">
        <ele>80.89</ele>
        <time>2014-05-30T13:21:01Z</time>
      </trkpt>
      <trkpt lat="45.16297" lon="0.57601">
        <ele>82</ele>
        <time>2014-05-30T13:21:04Z</time>
      </trkpt>
      <trkpt lat="45.16288" lon="0.5756">
        <ele>81.89</ele>
        <time>2014-05-30T13:21:09Z</time>
      </trkpt>
      <trkpt lat="45.16276" lon="0.57511">
        <ele>79.6</ele>
        <time>2014-05-30T13:21:15Z</time>
      </trkpt>
      <trkpt lat="45.16267" lon="0.57469">
        <ele>77.9</ele>
        <time>2014-05-30T13:21:20Z</time>
      </trkpt>
      <trkpt lat="45.16257" lon="0.57426">
        <ele>80.39</ele>
        <time>2014-05-30T13:21:25Z</time>
      </trkpt>
      <trkpt lat="45.16246" lon="0.57374">
        <ele>80.5</ele>
        <time>2014-05-30T13:21:31Z</time>
      </trkpt>
      <trkpt lat="45.16236" lon="0.57319">
        <ele>79.19</ele>
        <time>2014-05-30T13:21:37Z</time>
      </trkpt>
      <trkpt lat="45.16234" lon="0.57265">
        <ele>80.5</ele>
        <time>2014-05-30T13:21:43Z</time>
      </trkpt>
      <trkpt lat="45.16243" lon="0.57226">
        <ele>79.89</ele>
        <time>2014-05-30T13:21:48Z</time>
      </trkpt>
      <trkpt lat="45.16271" lon="0.57207">
        <ele>78.59</ele>
        <time>2014-05-30T13:21:54Z</time>
      </trkpt>
      <trkpt lat="45.16287" lon="0.57215">
        <ele>76.59</ele>
        <time>2014-05-30T13:21:57Z</time>
      </trkpt>
      <trkpt lat="45.16322" lon="0.57223">
        <ele>72.3</ele>
        <time>2014-05-30T13:22:04Z</time>
      </trkpt>
      <trkpt lat="45.16354" lon="0.5722">
        <ele>72.09</ele>
        <time>2014-05-30T13:22:10Z</time>
      </trkpt>
      <trkpt lat="45.16388" lon="0.57212">
        <ele>70.5</ele>
        <time>2014-05-30T13:22:16Z</time>
      </trkpt>
      <trkpt lat="45.16413" lon="0.57197">
        <ele>70.9</ele>
        <time>2014-05-30T13:22:21Z</time>
      </trkpt>
      <trkpt lat="45.16445" lon="0.57176">
        <ele>69.4</ele>
        <time>2014-05-30T13:22:27Z</time>
      </trkpt>
      <trkpt lat="45.16478" lon="0.57154">
        <ele>68.09</ele>
        <time>2014-05-30T13:22:33Z</time>
      </trkpt>
      <trkpt lat="45.16502" lon="0.57136">
        <ele>69.4</ele>
        <time>2014-05-30T13:22:38Z</time>
      </trkpt>
      <trkpt lat="45.16527" lon="0.57114">
        <ele>71</ele>
        <time>2014-05-30T13:22:44Z</time>
      </trkpt>
      <trkpt lat="45.16508" lon="0.57081">
        <ele>69.5</ele>
        <time>2014-05-30T13:22:51Z</time>
      </trkpt>
      <trkpt lat="45.16497" lon="0.57045">
        <ele>69.8</ele>
        <time>2014-05-30T13:22:56Z</time>
      </trkpt>
      <trkpt lat="45.16502" lon="0.57002">
        <ele>69.4</ele>
        <time>2014-05-30T13:23:01Z</time>
      </trkpt>
      <trkpt lat="45.16508" lon="0.56979">
        <ele>69.4</ele>
        <time>2014-05-30T13:23:04Z</time>
      </trkpt>
      <trkpt lat="45.16526" lon="0.56941">
        <ele>68.8</ele>
        <time>2014-05-30T13:23:10Z</time>
      </trkpt>
      <trkpt lat="45.16549" lon="0.56902">
        <ele>69.4</ele>
        <time>2014-05-30T13:23:16Z</time>
      </trkpt>
      <trkpt lat="45.16554" lon="0.56872">
        <ele>69.69</ele>
        <time>2014-05-30T13:23:21Z</time>
      </trkpt>
      <trkpt lat="45.16553" lon="0.56824">
        <ele>75.4</ele>
        <time>2014-05-30T13:23:27Z</time>
      </trkpt>
      <trkpt lat="45.16569" lon="0.56783">
        <ele>68.59</ele>
        <time>2014-05-30T13:23:33Z</time>
      </trkpt>
      <trkpt lat="45.16587" lon="0.56754">
        <ele>73.4</ele>
        <time>2014-05-30T13:23:39Z</time>
      </trkpt>
      <trkpt lat="45.16605" lon="0.56722">
        <ele>72.5</ele>
        <time>2014-05-30T13:23:44Z</time>
      </trkpt>
      <trkpt lat="45.16607" lon="0.56678">
        <ele>68</ele>
        <time>2014-05-30T13:23:50Z</time>
      </trkpt>
      <trkpt lat="45.16607" lon="0.5664">
        <ele>73.19</ele>
        <time>2014-05-30T13:23:56Z</time>
      </trkpt>
      <trkpt lat="45.16617" lon="0.56602">
        <ele>76.09</ele>
        <time>2014-05-30T13:24:02Z</time>
      </trkpt>
      <trkpt lat="45.16626" lon="0.56579">
        <ele>73.9</ele>
        <time>2014-05-30T13:24:07Z</time>
      </trkpt>
      <trkpt lat="45.16634" lon="0.56546">
        <ele>76.09</ele>
        <time>2014-05-30T13:24:12Z</time>
      </trkpt>
      <trkpt lat="45.16641" lon="0.56505">
        <ele>77.8</ele>
        <time>2014-05-30T13:24:17Z</time>
      </trkpt>
      <trkpt lat="45.16652" lon="0.56466">
        <ele>80.69</ele>
        <time>2014-05-30T13:24:23Z</time>
      </trkpt>
      <trkpt lat="45.16673" lon="0.56442">
        <ele>81.1</ele>
        <time>2014-05-30T13:24:28Z</time>
      </trkpt>
      <trkpt lat="45.16693" lon="0.56422">
        <ele>81.6</ele>
        <time>2014-05-30T13:24:33Z</time>
      </trkpt>
      <trkpt lat="45.16714" lon="0.56401">
        <ele>78.59</ele>
        <time>2014-05-30T13:24:39Z</time>
      </trkpt>
      <trkpt lat="45.16739" lon="0.56379">
        <ele>77.4</ele>
        <time>2014-05-30T13:24:46Z</time>
      </trkpt>
      <trkpt lat="45.16755" lon="0.5636">
        <ele>79.5</ele>
        <time>2014-05-30T13:24:51Z</time>
      </trkpt>
      <trkpt lat="45.16778" lon="0.56337">
        <ele>77.69</ele>
        <time>2014-05-30T13:24:57Z</time>
      </trkpt>
      <trkpt lat="45.16795" lon="0.56314">
        <ele>79.39</ele>
        <time>2014-05-30T13:25:02Z</time>
      </trkpt>
      <trkpt lat="45.16808" lon="0.56296">
        <ele>80</ele>
        <time>2014-05-30T13:25:06Z</time>
      </trkpt>
      <trkpt lat="45.16818" lon="0.56283">
        <ele>80.1</ele>
        <time>2014-05-30T13:25:09Z</time>
      </trkpt>
      <trkpt lat="45.16831" lon="0.56265">
        <ele>80.1</ele>
        <time>2014-05-30T13:25:13Z</time>
      </trkpt>
      <trkpt lat="45.16843" lon="0.56248">
        <ele>81.89</ele>
        <time>2014-05-30T13:25:18Z</time>
      </trkpt>
      <trkpt lat="45.16858" lon="0.56233">
        <ele>82.1</ele>
        <time>2014-05-30T13:25:28Z</time>
      </trkpt>
      <trkpt lat="45.1688" lon="0.56244">
        <ele>78.09</ele>
        <time>2014-05-30T13:25:41Z</time>
      </trkpt>
      <trkpt lat="45.16886" lon="0.56244">
        <ele>77.3</ele>
        <time>2014-05-30T13:25:46Z</time>
      </trkpt>
      <trkpt lat="45.16886" lon="0.56244">
        <ele>79</ele>
        <time>2014-05-30T13:25:54Z</time>
      </trkpt>
      <trkpt lat="45.16886" lon="0.56244">
        <ele>79</ele>
        <time>2014-05-30T13:32:01Z</time>
      </trkpt>
      <trkpt lat="45.16865" lon="0.56234">
        <ele>78.09</ele>
        <time>2014-05-30T13:32:01Z</time>
      </trkpt>
      <trkpt lat="45.16842" lon="0.56216">
        <ele>77</ele>
        <time>2014-05-30T13:32:07Z</time>
      </trkpt>
      <trkpt lat="45.16829" lon="0.56209">
        <ele>75.5</ele>
        <time>2014-05-30T13:32:10Z</time>
      </trkpt>
      <trkpt lat="45.16805" lon="0.56202">
        <ele>73.9</ele>
        <time>2014-05-30T13:32:16Z</time>
      </trkpt>
      <trkpt lat="45.16786" lon="0.56202">
        <ele>73.3</ele>
        <time>2014-05-30T13:32:21Z</time>
      </trkpt>
      <trkpt lat="45.16778" lon="0.56187">
        <ele>68.9</ele>
        <time>2014-05-30T13:32:30Z</time>
      </trkpt>
      <trkpt lat="45.16778" lon="0.56165">
        <ele>68</ele>
        <time>2014-05-30T13:32:41Z</time>
      </trkpt>
      <trkpt lat="45.16775" lon="0.56148">
        <ele>68.09</ele>
        <time>2014-05-30T13:32:49Z</time>
      </trkpt>
      <trkpt lat="45.16776" lon="0.56127">
        <ele>71.19</ele>
        <time>2014-05-30T13:32:58Z</time>
      </trkpt>
      <trkpt lat="45.16773" lon="0.56094">
        <ele>76.69</ele>
        <time>2014-05-30T13:33:12Z</time>
      </trkpt>
      <trkpt lat="45.16774" lon="0.56063">
        <ele>77</ele>
        <time>2014-05-30T13:33:25Z</time>
      </trkpt>
      <trkpt lat="45.16775" lon="0.56048">
        <ele>78.19</ele>
        <time>2014-05-30T13:33:32Z</time>
      </trkpt>
      <trkpt lat="45.16775" lon="0.56023">
        <ele>77.09</ele>
        <time>2014-05-30T13:33:44Z</time>
      </trkpt>
      <trkpt lat="45.16769" lon="0.55986">
        <ele>86.8</ele>
        <time>2014-05-30T13:33:59Z</time>
      </trkpt>
      <trkpt lat="45.16761" lon="0.55963">
        <ele>84.39</ele>
        <time>2014-05-30T13:34:06Z</time>
      </trkpt>
      <trkpt lat="45.1675" lon="0.55936">
        <ele>84.3</ele>
        <time>2014-05-30T13:34:15Z</time>
      </trkpt>
      <trkpt lat="45.16744" lon="0.55916">
        <ele>81.39</ele>
        <time>2014-05-30T13:34:23Z</time>
      </trkpt>
      <trkpt lat="45.16734" lon="0.55893">
        <ele>77.5</ele>
        <time>2014-05-30T13:34:32Z</time>
      </trkpt>
      <trkpt lat="45.1673" lon="0.5588">
        <ele>73.5</ele>
        <time>2014-05-30T13:34:37Z</time>
      </trkpt>
      <trkpt lat="45.16724" lon="0.55862">
        <ele>79.89</ele>
        <time>2014-05-30T13:34:47Z</time>
      </trkpt>
      <trkpt lat="45.16715" lon="0.55837">
        <ele>81.39</ele>
        <time>2014-05-30T13:34:58Z</time>
      </trkpt>
      <trkpt lat="45.16714" lon="0.55835">
        <ele>83.1</ele>
        <time>2014-05-30T13:35:00Z</time>
      </trkpt>
      <trkpt lat="45.16714" lon="0.55835">
        <ele>95</ele>
        <time>2014-05-30T13:35:06Z</time>
      </trkpt>
      <trkpt lat="45.16714" lon="0.55835">
        <ele>95</ele>
        <time>2014-05-30T13:35:13Z</time>
      </trkpt>
      <trkpt lat="45.16713" lon="0.5582">
        <ele>84.1</ele>
        <time>2014-05-30T13:35:13Z</time>
      </trkpt>
      <trkpt lat="45.16714" lon="0.55796">
        <ele>88</ele>
        <time>2014-05-30T13:35:30Z</time>
      </trkpt>
      <trkpt lat="45.16714" lon="0.55774">
        <ele>89.89</ele>
        <time>2014-05-30T13:35:49Z</time>
      </trkpt>
      <trkpt lat="45.16715" lon="0.55753">
        <ele>95.89</ele>
        <time>2014-05-30T13:35:58Z</time>
      </trkpt>
      <trkpt lat="45.16718" lon="0.55734">
        <ele>95.89</ele>
        <time>2014-05-30T13:36:06Z</time>
      </trkpt>
      <trkpt lat="45.16722" lon="0.55709">
        <ele>97.1</ele>
        <time>2014-05-30T13:36:19Z</time>
      </trkpt>
      <trkpt lat="45.16724" lon="0.55693">
        <ele>95</ele>
        <time>2014-05-30T13:36:28Z</time>
      </trkpt>
      <trkpt lat="45.16724" lon="0.55693">
        <ele>102</ele>
        <time>2014-05-30T13:36:35Z</time>
      </trkpt>
      <trkpt lat="45.16724" lon="0.55693">
        <ele>102</ele>
        <time>2014-05-30T13:36:50Z</time>
      </trkpt>
      <trkpt lat="45.16738" lon="0.55693">
        <ele>98.1</ele>
        <time>2014-05-30T13:36:50Z</time>
      </trkpt>
      <trkpt lat="45.16755" lon="0.55695">
        <ele>100.89</ele>
        <time>2014-05-30T13:36:55Z</time>
      </trkpt>
      <trkpt lat="45.16772" lon="0.55694">
        <ele>97.69</ele>
        <time>2014-05-30T13:37:00Z</time>
      </trkpt>
      <trkpt lat="45.16795" lon="0.55694">
        <ele>86.39</ele>
        <time>2014-05-30T13:37:09Z</time>
      </trkpt>
      <trkpt lat="45.1682" lon="0.55681">
        <ele>88.5</ele>
        <time>2014-05-30T13:37:15Z</time>
      </trkpt>
      <trkpt lat="45.16837" lon="0.55666">
        <ele>89.19</ele>
        <time>2014-05-30T13:37:20Z</time>
      </trkpt>
      <trkpt lat="45.16858" lon="0.55648">
        <ele>88.69</ele>
        <time>2014-05-30T13:37:27Z</time>
      </trkpt>
      <trkpt lat="45.16879" lon="0.55629">
        <ele>89.39</ele>
        <time>2014-05-30T13:37:34Z</time>
      </trkpt>
      <trkpt lat="45.16895" lon="0.55613">
        <ele>90.19</ele>
        <time>2014-05-30T13:37:39Z</time>
      </trkpt>
      <trkpt lat="45.16916" lon="0.55592">
        <ele>90.39</ele>
        <time>2014-05-30T13:37:46Z</time>
      </trkpt>
      <trkpt lat="45.16928" lon="0.55578">
        <ele>90.89</ele>
        <time>2014-05-30T13:37:51Z</time>
      </trkpt>
      <trkpt lat="45.16944" lon="0.5556">
        <ele>87.89</ele>
        <time>2014-05-30T13:37:58Z</time>
      </trkpt>
      <trkpt lat="45.16961" lon="0.55536">
        <ele>90.69</ele>
        <time>2014-05-30T13:38:07Z</time>
      </trkpt>
      <trkpt lat="45.1698" lon="0.55514">
        <ele>90.19</ele>
        <time>2014-05-30T13:38:15Z</time>
      </trkpt>
      <trkpt lat="45.16988" lon="0.55503">
        <ele>91.3</ele>
        <time>2014-05-30T13:38:19Z</time>
      </trkpt>
      <trkpt lat="45.17" lon="0.55482">
        <ele>91.6</ele>
        <time>2014-05-30T13:38:27Z</time>
      </trkpt>
      <trkpt lat="45.17015" lon="0.55453">
        <ele>92.5</ele>
        <time>2014-05-30T13:38:37Z</time>
      </trkpt>
      <trkpt lat="45.17034" lon="0.55435">
        <ele>96.69</ele>
        <time>2014-05-30T13:38:44Z</time>
      </trkpt>
      <trkpt lat="45.17054" lon="0.5542">
        <ele>95.69</ele>
        <time>2014-05-30T13:38:52Z</time>
      </trkpt>
      <trkpt lat="45.1707" lon="0.55402">
        <ele>96</ele>
        <time>2014-05-30T13:39:00Z</time>
      </trkpt>
      <trkpt lat="45.17089" lon="0.55388">
        <ele>97.19</ele>
        <time>2014-05-30T13:39:08Z</time>
      </trkpt>
      <trkpt lat="45.17111" lon="0.55378">
        <ele>95.5</ele>
        <time>2014-05-30T13:39:16Z</time>
      </trkpt>
      <trkpt lat="45.17132" lon="0.55369">
        <ele>96.1</ele>
        <time>2014-05-30T13:39:23Z</time>
      </trkpt>
      <trkpt lat="45.17152" lon="0.55362">
        <ele>95.3</ele>
        <time>2014-05-30T13:39:30Z</time>
      </trkpt>
      <trkpt lat="45.17171" lon="0.55354">
        <ele>94.6</ele>
        <time>2014-05-30T13:39:37Z</time>
      </trkpt>
      <trkpt lat="45.17191" lon="0.55339">
        <ele>94.8</ele>
        <time>2014-05-30T13:39:46Z</time>
      </trkpt>
      <trkpt lat="45.17212" lon="0.55324">
        <ele>93.1</ele>
        <time>2014-05-30T13:39:54Z</time>
      </trkpt>
      <trkpt lat="45.17234" lon="0.55306">
        <ele>91.19</ele>
        <time>2014-05-30T13:40:02Z</time>
      </trkpt>
      <trkpt lat="45.17247" lon="0.55294">
        <ele>89.8</ele>
        <time>2014-05-30T13:40:07Z</time>
      </trkpt>
      <trkpt lat="45.17263" lon="0.55285">
        <ele>88.39</ele>
        <time>2014-05-30T13:40:15Z</time>
      </trkpt>
      <trkpt lat="45.17298" lon="0.55302">
        <ele>86.89</ele>
        <time>2014-05-30T13:40:23Z</time>
      </trkpt>
      <trkpt lat="45.17332" lon="0.55311">
        <ele>85</ele>
        <time>2014-05-30T13:40:30Z</time>
      </trkpt>
      <trkpt lat="45.17359" lon="0.55323">
        <ele>84.8</ele>
        <time>2014-05-30T13:40:38Z</time>
      </trkpt>
      <trkpt lat="45.17359" lon="0.55323">
        <ele>87</ele>
        <time>2014-05-30T13:42:25Z</time>
      </trkpt>
      <trkpt lat="45.17465" lon="0.55361">
        <ele>90.1</ele>
        <time>2014-05-30T13:42:25Z</time>
      </trkpt>
      <trkpt lat="45.1748" lon="0.55324">
        <ele>89.89</ele>
        <time>2014-05-30T13:42:32Z</time>
      </trkpt>
      <trkpt lat="45.1749" lon="0.55304">
        <ele>88.89</ele>
        <time>2014-05-30T13:42:36Z</time>
      </trkpt>
      <trkpt lat="45.17503" lon="0.5528">
        <ele>88.8</ele>
        <time>2014-05-30T13:42:41Z</time>
      </trkpt>
      <trkpt lat="45.17515" lon="0.55263">
        <ele>87.89</ele>
        <time>2014-05-30T13:42:45Z</time>
      </trkpt>
      <trkpt lat="45.17525" lon="0.55254">
        <ele>85.8</ele>
        <time>2014-05-30T13:42:48Z</time>
      </trkpt>
      <trkpt lat="45.1754" lon="0.55235">
        <ele>87.89</ele>
        <time>2014-05-30T13:42:54Z</time>
      </trkpt>
      <trkpt lat="45.17554" lon="0.55219">
        <ele>89</ele>
        <time>2014-05-30T13:43:00Z</time>
      </trkpt>
      <trkpt lat="45.17572" lon="0.55197">
        <ele>91.5</ele>
        <time>2014-05-30T13:43:08Z</time>
      </trkpt>
      <trkpt lat="45.17586" lon="0.55175">
        <ele>94</ele>
        <time>2014-05-30T13:43:16Z</time>
      </trkpt>
      <trkpt lat="45.17604" lon="0.55157">
        <ele>94.8</ele>
        <time>2014-05-30T13:43:24Z</time>
      </trkpt>
      <trkpt lat="45.17622" lon="0.55139">
        <ele>92.6</ele>
        <time>2014-05-30T13:43:31Z</time>
      </trkpt>
      <trkpt lat="45.17634" lon="0.55126">
        <ele>90.8</ele>
        <time>2014-05-30T13:43:36Z</time>
      </trkpt>
      <trkpt lat="45.1765" lon="0.55104">
        <ele>93.19</ele>
        <time>2014-05-30T13:43:44Z</time>
      </trkpt>
      <trkpt lat="45.17667" lon="0.5509">
        <ele>94.19</ele>
        <time>2014-05-30T13:43:52Z</time>
      </trkpt>
      <trkpt lat="45.17685" lon="0.55078">
        <ele>95.6</ele>
        <time>2014-05-30T13:44:02Z</time>
      </trkpt>
      <trkpt lat="45.17691" lon="0.55074">
        <ele>95.19</ele>
        <time>2014-05-30T13:44:05Z</time>
      </trkpt>
      <trkpt lat="45.17711" lon="0.5506">
        <ele>97.6</ele>
        <time>2014-05-30T13:44:17Z</time>
      </trkpt>
      <trkpt lat="45.17722" lon="0.55051">
        <ele>96.89</ele>
        <time>2014-05-30T13:44:25Z</time>
      </trkpt>
      <trkpt lat="45.17741" lon="0.5504">
        <ele>102.5</ele>
        <time>2014-05-30T13:44:38Z</time>
      </trkpt>
      <trkpt lat="45.17755" lon="0.55033">
        <ele>105.8</ele>
        <time>2014-05-30T13:44:51Z</time>
      </trkpt>
      <trkpt lat="45.1777" lon="0.55031">
        <ele>111.1</ele>
        <time>2014-05-30T13:45:06Z</time>
      </trkpt>
      <trkpt lat="45.17789" lon="0.55026">
        <ele>113.1</ele>
        <time>2014-05-30T13:45:25Z</time>
      </trkpt>
      <trkpt lat="45.17812" lon="0.55024">
        <ele>115.69</ele>
        <time>2014-05-30T13:45:44Z</time>
      </trkpt>
      <trkpt lat="45.17828" lon="0.55023">
        <ele>119.1</ele>
        <time>2014-05-30T13:45:59Z</time>
      </trkpt>
      <trkpt lat="45.17846" lon="0.55021">
        <ele>121.6</ele>
        <time>2014-05-30T13:46:12Z</time>
      </trkpt>
      <trkpt lat="45.1786" lon="0.55022">
        <ele>124.3</ele>
        <time>2014-05-30T13:46:25Z</time>
      </trkpt>
      <trkpt lat="45.17886" lon="0.55026">
        <ele>126.8</ele>
        <time>2014-05-30T13:46:47Z</time>
      </trkpt>
      <trkpt lat="45.17904" lon="0.55032">
        <ele>132.1</ele>
        <time>2014-05-30T13:47:06Z</time>
      </trkpt>
      <trkpt lat="45.1792" lon="0.55038">
        <ele>135.5</ele>
        <time>2014-05-30T13:47:20Z</time>
      </trkpt>
      <trkpt lat="45.17936" lon="0.55045">
        <ele>131.6</ele>
        <time>2014-05-30T13:47:36Z</time>
      </trkpt>
      <trkpt lat="45.17951" lon="0.55059">
        <ele>133.89</ele>
        <time>2014-05-30T13:47:52Z</time>
      </trkpt>
      <trkpt lat="45.17963" lon="0.55074">
        <ele>137.5</ele>
        <time>2014-05-30T13:48:05Z</time>
      </trkpt>
      <trkpt lat="45.17981" lon="0.55088">
        <ele>138.5</ele>
        <time>2014-05-30T13:48:20Z</time>
      </trkpt>
      <trkpt lat="45.17996" lon="0.55103">
        <ele>139.1</ele>
        <time>2014-05-30T13:48:31Z</time>
      </trkpt>
      <trkpt lat="45.18014" lon="0.55122">
        <ele>138.6</ele>
        <time>2014-05-30T13:48:41Z</time>
      </trkpt>
      <trkpt lat="45.18027" lon="0.55139">
        <ele>137.69</ele>
        <time>2014-05-30T13:48:49Z</time>
      </trkpt>
      <trkpt lat="45.1804" lon="0.55158">
        <ele>141.19</ele>
        <time>2014-05-30T13:48:58Z</time>
      </trkpt>
      <trkpt lat="45.18049" lon="0.55171">
        <ele>143.5</ele>
        <time>2014-05-30T13:49:05Z</time>
      </trkpt>
      <trkpt lat="45.18056" lon="0.55187">
        <ele>145.39</ele>
        <time>2014-05-30T13:49:14Z</time>
      </trkpt>
      <trkpt lat="45.18068" lon="0.5521">
        <ele>142.89</ele>
        <time>2014-05-30T13:49:31Z</time>
      </trkpt>
      <trkpt lat="45.18095" lon="0.55236">
        <ele>145.3</ele>
        <time>2014-05-30T13:49:44Z</time>
      </trkpt>
      <trkpt lat="45.18115" lon="0.55249">
        <ele>147</ele>
        <time>2014-05-30T13:49:51Z</time>
      </trkpt>
      <trkpt lat="45.18134" lon="0.55257">
        <ele>149.1</ele>
        <time>2014-05-30T13:49:59Z</time>
      </trkpt>
      <trkpt lat="45.18157" lon="0.55259">
        <ele>149.19</ele>
        <time>2014-05-30T13:50:07Z</time>
      </trkpt>
      <trkpt lat="45.18171" lon="0.55256">
        <ele>148.1</ele>
        <time>2014-05-30T13:50:12Z</time>
      </trkpt>
      <trkpt lat="45.18201" lon="0.55274">
        <ele>145.3</ele>
        <time>2014-05-30T13:50:20Z</time>
      </trkpt>
      <trkpt lat="45.18218" lon="0.55279">
        <ele>143.8</ele>
        <time>2014-05-30T13:50:23Z</time>
      </trkpt>
      <trkpt lat="45.18236" lon="0.55277">
        <ele>144.19</ele>
        <time>2014-05-30T13:50:26Z</time>
      </trkpt>
      <trkpt lat="45.18257" lon="0.55271">
        <ele>145.5</ele>
        <time>2014-05-30T13:50:32Z</time>
      </trkpt>
      <trkpt lat="45.18273" lon="0.55267">
        <ele>149.1</ele>
        <time>2014-05-30T13:50:37Z</time>
      </trkpt>
      <trkpt lat="45.18284" lon="0.55269">
        <ele>148</ele>
        <time>2014-05-30T13:50:44Z</time>
      </trkpt>
      <trkpt lat="45.18296" lon="0.5528">
        <ele>153.19</ele>
        <time>2014-05-30T13:50:54Z</time>
      </trkpt>
      <trkpt lat="45.18314" lon="0.55299">
        <ele>151.19</ele>
        <time>2014-05-30T13:51:06Z</time>
      </trkpt>
      <trkpt lat="45.18332" lon="0.55325">
        <ele>152.69</ele>
        <time>2014-05-30T13:51:13Z</time>
      </trkpt>
      <trkpt lat="45.18355" lon="0.55349">
        <ele>151.1</ele>
        <time>2014-05-30T13:51:20Z</time>
      </trkpt>
      <trkpt lat="45.18374" lon="0.55371">
        <ele>149.6</ele>
        <time>2014-05-30T13:51:25Z</time>
      </trkpt>
      <trkpt lat="45.18395" lon="0.55403">
        <ele>148.39</ele>
        <time>2014-05-30T13:51:32Z</time>
      </trkpt>
      <trkpt lat="45.18413" lon="0.5543">
        <ele>148.19</ele>
        <time>2014-05-30T13:51:37Z</time>
      </trkpt>
      <trkpt lat="45.18426" lon="0.55453">
        <ele>144.89</ele>
        <time>2014-05-30T13:51:42Z</time>
      </trkpt>
      <trkpt lat="45.18438" lon="0.55473">
        <ele>144.8</ele>
        <time>2014-05-30T13:51:47Z</time>
      </trkpt>
      <trkpt lat="45.18454" lon="0.55491">
        <ele>142.5</ele>
        <time>2014-05-30T13:51:52Z</time>
      </trkpt>
      <trkpt lat="45.18456" lon="0.55508">
        <ele>140.5</ele>
        <time>2014-05-30T13:51:57Z</time>
      </trkpt>
      <trkpt lat="45.18463" lon="0.55542">
        <ele>138.5</ele>
        <time>2014-05-30T13:52:02Z</time>
      </trkpt>
      <trkpt lat="45.18467" lon="0.55552">
        <ele>137</ele>
        <time>2014-05-30T13:52:05Z</time>
      </trkpt>
      <trkpt lat="45.18432" lon="0.55575">
        <ele>133.89</ele>
        <time>2014-05-30T13:52:17Z</time>
      </trkpt>
      <trkpt lat="45.18428" lon="0.55636">
        <ele>131.3</ele>
        <time>2014-05-30T13:52:24Z</time>
      </trkpt>
      <trkpt lat="45.18425" lon="0.55667">
        <ele>127.5</ele>
        <time>2014-05-30T13:52:28Z</time>
      </trkpt>
      <trkpt lat="45.1841" lon="0.55706">
        <ele>119.6</ele>
        <time>2014-05-30T13:52:35Z</time>
      </trkpt>
      <trkpt lat="45.18385" lon="0.55723">
        <ele>119.8</ele>
        <time>2014-05-30T13:52:40Z</time>
      </trkpt>
      <trkpt lat="45.18369" lon="0.55737">
        <ele>118.69</ele>
        <time>2014-05-30T13:52:43Z</time>
      </trkpt>
      <trkpt lat="45.18348" lon="0.55762">
        <ele>117.39</ele>
        <time>2014-05-30T13:52:48Z</time>
      </trkpt>
      <trkpt lat="45.18336" lon="0.55776">
        <ele>117.89</ele>
        <time>2014-05-30T13:52:51Z</time>
      </trkpt>
      <trkpt lat="45.18314" lon="0.55804">
        <ele>115.5</ele>
        <time>2014-05-30T13:52:57Z</time>
      </trkpt>
      <trkpt lat="45.18293" lon="0.55829">
        <ele>114.5</ele>
        <time>2014-05-30T13:53:03Z</time>
      </trkpt>
      <trkpt lat="45.18282" lon="0.55841">
        <ele>114.69</ele>
        <time>2014-05-30T13:53:06Z</time>
      </trkpt>
      <trkpt lat="45.18274" lon="0.55852">
        <ele>118.8</ele>
        <time>2014-05-30T13:53:09Z</time>
      </trkpt>
      <trkpt lat="45.18246" lon="0.55879">
        <ele>118.6</ele>
        <time>2014-05-30T13:53:16Z</time>
      </trkpt>
      <trkpt lat="45.18221" lon="0.55902">
        <ele>119.19</ele>
        <time>2014-05-30T13:53:22Z</time>
      </trkpt>
      <trkpt lat="45.18208" lon="0.55911">
        <ele>118.8</ele>
        <time>2014-05-30T13:53:25Z</time>
      </trkpt>
      <trkpt lat="45.18168" lon="0.5593">
        <ele>117</ele>
        <time>2014-05-30T13:53:32Z</time>
      </trkpt>
      <trkpt lat="45.18138" lon="0.55959">
        <ele>118.5</ele>
        <time>2014-05-30T13:53:38Z</time>
      </trkpt>
      <trkpt lat="45.18117" lon="0.55998">
        <ele>119.89</ele>
        <time>2014-05-30T13:53:44Z</time>
      </trkpt>
      <trkpt lat="45.18101" lon="0.56031">
        <ele>122.6</ele>
        <time>2014-05-30T13:53:50Z</time>
      </trkpt>
      <trkpt lat="45.18086" lon="0.56059">
        <ele>121.6</ele>
        <time>2014-05-30T13:53:55Z</time>
      </trkpt>
      <trkpt lat="45.18068" lon="0.56097">
        <ele>120.6</ele>
        <time>2014-05-30T13:54:00Z</time>
      </trkpt>
      <trkpt lat="45.18042" lon="0.56143">
        <ele>118.39</ele>
        <time>2014-05-30T13:54:06Z</time>
      </trkpt>
      <trkpt lat="45.18023" lon="0.56166">
        <ele>119.8</ele>
        <time>2014-05-30T13:54:09Z</time>
      </trkpt>
      <trkpt lat="45.18" lon="0.56209">
        <ele>116.89</ele>
        <time>2014-05-30T13:54:14Z</time>
      </trkpt>
      <trkpt lat="45.17976" lon="0.56264">
        <ele>117.89</ele>
        <time>2014-05-30T13:54:20Z</time>
      </trkpt>
      <trkpt lat="45.17964" lon="0.56289">
        <ele>118</ele>
        <time>2014-05-30T13:54:23Z</time>
      </trkpt>
      <trkpt lat="45.17949" lon="0.56313">
        <ele>119.3</ele>
        <time>2014-05-30T13:54:26Z</time>
      </trkpt>
      <trkpt lat="45.17922" lon="0.5635">
        <ele>119.39</ele>
        <time>2014-05-30T13:54:31Z</time>
      </trkpt>
      <trkpt lat="45.17896" lon="0.56384">
        <ele>118</ele>
        <time>2014-05-30T13:54:36Z</time>
      </trkpt>
      <trkpt lat="45.17872" lon="0.56417">
        <ele>116.69</ele>
        <time>2014-05-30T13:54:41Z</time>
      </trkpt>
      <trkpt lat="45.17846" lon="0.56447">
        <ele>118</ele>
        <time>2014-05-30T13:54:47Z</time>
      </trkpt>
      <trkpt lat="45.17824" lon="0.56468">
        <ele>119.69</ele>
        <time>2014-05-30T13:54:52Z</time>
      </trkpt>
      <trkpt lat="45.17812" lon="0.56479">
        <ele>119.3</ele>
        <time>2014-05-30T13:54:55Z</time>
      </trkpt>
      <trkpt lat="45.17783" lon="0.56498">
        <ele>118.39</ele>
        <time>2014-05-30T13:55:01Z</time>
      </trkpt>
      <trkpt lat="45.17751" lon="0.56518">
        <ele>118.3</ele>
        <time>2014-05-30T13:55:07Z</time>
      </trkpt>
      <trkpt lat="45.1773" lon="0.56525">
        <ele>117.6</ele>
        <time>2014-05-30T13:55:10Z</time>
      </trkpt>
      <trkpt lat="45.17709" lon="0.56531">
        <ele>117.1</ele>
        <time>2014-05-30T13:55:13Z</time>
      </trkpt>
      <trkpt lat="45.17678" lon="0.56548">
        <ele>118.8</ele>
        <time>2014-05-30T13:55:18Z</time>
      </trkpt>
      <trkpt lat="45.17654" lon="0.56587">
        <ele>120.19</ele>
        <time>2014-05-30T13:55:23Z</time>
      </trkpt>
      <trkpt lat="45.17633" lon="0.56627">
        <ele>118.19</ele>
        <time>2014-05-30T13:55:29Z</time>
      </trkpt>
      <trkpt lat="45.17609" lon="0.56654">
        <ele>114.8</ele>
        <time>2014-05-30T13:55:34Z</time>
      </trkpt>
      <trkpt lat="45.1758" lon="0.56679">
        <ele>112.39</ele>
        <time>2014-05-30T13:55:39Z</time>
      </trkpt>
      <trkpt lat="45.17539" lon="0.56701">
        <ele>109.8</ele>
        <time>2014-05-30T13:55:45Z</time>
      </trkpt>
      <trkpt lat="45.17495" lon="0.56719">
        <ele>108</ele>
        <time>2014-05-30T13:55:51Z</time>
      </trkpt>
      <trkpt lat="45.17421" lon="0.56743">
        <ele>109.8</ele>
        <time>2014-05-30T13:55:59Z</time>
      </trkpt>
      <trkpt lat="45.17351" lon="0.56763">
        <ele>104.89</ele>
        <time>2014-05-30T13:56:06Z</time>
      </trkpt>
      <trkpt lat="45.17281" lon="0.5677">
        <ele>99</ele>
        <time>2014-05-30T13:56:13Z</time>
      </trkpt>
      <trkpt lat="45.17231" lon="0.56776">
        <ele>100.8</ele>
        <time>2014-05-30T13:56:18Z</time>
      </trkpt>
      <trkpt lat="45.17179" lon="0.56777">
        <ele>101</ele>
        <time>2014-05-30T13:56:23Z</time>
      </trkpt>
      <trkpt lat="45.17138" lon="0.56777">
        <ele>104.6</ele>
        <time>2014-05-30T13:56:28Z</time>
      </trkpt>
      <trkpt lat="45.17116" lon="0.56781">
        <ele>105.39</ele>
        <time>2014-05-30T13:56:34Z</time>
      </trkpt>
      <trkpt lat="45.17113" lon="0.56821">
        <ele>96.69</ele>
        <time>2014-05-30T13:56:43Z</time>
      </trkpt>
      <trkpt lat="45.17118" lon="0.56856">
        <ele>95.6</ele>
        <time>2014-05-30T13:56:48Z</time>
      </trkpt>
      <trkpt lat="45.17125" lon="0.56905">
        <ele>96.3</ele>
        <time>2014-05-30T13:56:55Z</time>
      </trkpt>
      <trkpt lat="45.17133" lon="0.5695">
        <ele>96.39</ele>
        <time>2014-05-30T13:57:01Z</time>
      </trkpt>
      <trkpt lat="45.17141" lon="0.56991">
        <ele>96.8</ele>
        <time>2014-05-30T13:57:06Z</time>
      </trkpt>
      <trkpt lat="45.17147" lon="0.57031">
        <ele>96.5</ele>
        <time>2014-05-30T13:57:11Z</time>
      </trkpt>
      <trkpt lat="45.17155" lon="0.57077">
        <ele>96.1</ele>
        <time>2014-05-30T13:57:17Z</time>
      </trkpt>
      <trkpt lat="45.17158" lon="0.5712">
        <ele>96.3</ele>
        <time>2014-05-30T13:57:22Z</time>
      </trkpt>
      <trkpt lat="45.17161" lon="0.57145">
        <ele>96.1</ele>
        <time>2014-05-30T13:57:25Z</time>
      </trkpt>
      <trkpt lat="45.17165" lon="0.57195">
        <ele>93.89</ele>
        <time>2014-05-30T13:57:31Z</time>
      </trkpt>
      <trkpt lat="45.17174" lon="0.57244">
        <ele>94.39</ele>
        <time>2014-05-30T13:57:37Z</time>
      </trkpt>
      <trkpt lat="45.17178" lon="0.57285">
        <ele>94.8</ele>
        <time>2014-05-30T13:57:42Z</time>
      </trkpt>
      <trkpt lat="45.17183" lon="0.57335">
        <ele>97.3</ele>
        <time>2014-05-30T13:57:48Z</time>
      </trkpt>
      <trkpt lat="45.17188" lon="0.57378">
        <ele>98.6</ele>
        <time>2014-05-30T13:57:53Z</time>
      </trkpt>
      <trkpt lat="45.172" lon="0.57424">
        <ele>93</ele>
        <time>2014-05-30T13:57:58Z</time>
      </trkpt>
      <trkpt lat="45.17217" lon="0.57488">
        <ele>90.89</ele>
        <time>2014-05-30T13:58:04Z</time>
      </trkpt>
      <trkpt lat="45.17226" lon="0.57518">
        <ele>89.1</ele>
        <time>2014-05-30T13:58:07Z</time>
      </trkpt>
      <trkpt lat="45.17232" lon="0.57548">
        <ele>86.39</ele>
        <time>2014-05-30T13:58:10Z</time>
      </trkpt>
      <trkpt lat="45.17234" lon="0.57598">
        <ele>86.39</ele>
        <time>2014-05-30T13:58:16Z</time>
      </trkpt>
      <trkpt lat="45.17234" lon="0.57638">
        <ele>87.39</ele>
        <time>2014-05-30T13:58:22Z</time>
      </trkpt>
      <trkpt lat="45.17235" lon="0.57664">
        <ele>88</ele>
        <time>2014-05-30T13:58:27Z</time>
      </trkpt>
      <trkpt lat="45.17236" lon="0.577">
        <ele>89.5</ele>
        <time>2014-05-30T13:58:34Z</time>
      </trkpt>
      <trkpt lat="45.17238" lon="0.57737">
        <ele>89.39</ele>
        <time>2014-05-30T13:58:41Z</time>
      </trkpt>
      <trkpt lat="45.1724" lon="0.57772">
        <ele>90.69</ele>
        <time>2014-05-30T13:58:48Z</time>
      </trkpt>
      <trkpt lat="45.17241" lon="0.57807">
        <ele>91.3</ele>
        <time>2014-05-30T13:58:54Z</time>
      </trkpt>
      <trkpt lat="45.17197" lon="0.58149">
        <ele>89.1</ele>
        <time>2014-05-30T13:59:43Z</time>
      </trkpt>
      <trkpt lat="45.17189" lon="0.58177">
        <ele>89.1</ele>
        <time>2014-05-30T13:59:46Z</time>
      </trkpt>
      <trkpt lat="45.17181" lon="0.5823">
        <ele>87.19</ele>
        <time>2014-05-30T13:59:52Z</time>
      </trkpt>
      <trkpt lat="45.17178" lon="0.58256">
        <ele>86.1</ele>
        <time>2014-05-30T13:59:55Z</time>
      </trkpt>
      <trkpt lat="45.17175" lon="0.58282">
        <ele>85.69</ele>
        <time>2014-05-30T13:59:58Z</time>
      </trkpt>
      <trkpt lat="45.17173" lon="0.58332">
        <ele>86.39</ele>
        <time>2014-05-30T14:00:04Z</time>
      </trkpt>
      <trkpt lat="45.17172" lon="0.58373">
        <ele>85.1</ele>
        <time>2014-05-30T14:00:09Z</time>
      </trkpt>
      <trkpt lat="45.17171" lon="0.58414">
        <ele>88.8</ele>
        <time>2014-05-30T14:00:14Z</time>
      </trkpt>
      <trkpt lat="45.1717" lon="0.58465">
        <ele>87</ele>
        <time>2014-05-30T14:00:20Z</time>
      </trkpt>
      <trkpt lat="45.1717" lon="0.58516">
        <ele>83.3</ele>
        <time>2014-05-30T14:00:26Z</time>
      </trkpt>
      <trkpt lat="45.17171" lon="0.58563">
        <ele>84.39</ele>
        <time>2014-05-30T14:00:32Z</time>
      </trkpt>
      <trkpt lat="45.17169" lon="0.58593">
        <ele>81.89</ele>
        <time>2014-05-30T14:00:36Z</time>
      </trkpt>
      <trkpt lat="45.17168" lon="0.58635">
        <ele>84.3</ele>
        <time>2014-05-30T14:00:41Z</time>
      </trkpt>
      <trkpt lat="45.17167" lon="0.58661">
        <ele>83.19</ele>
        <time>2014-05-30T14:00:44Z</time>
      </trkpt>
      <trkpt lat="45.17169" lon="0.58705">
        <ele>81.39</ele>
        <time>2014-05-30T14:00:49Z</time>
      </trkpt>
      <trkpt lat="45.17168" lon="0.58735">
        <ele>81</ele>
        <time>2014-05-30T14:00:52Z</time>
      </trkpt>
      <trkpt lat="45.17168" lon="0.58763">
        <ele>81.89</ele>
        <time>2014-05-30T14:00:55Z</time>
      </trkpt>
      <trkpt lat="45.17166" lon="0.58808">
        <ele>81.69</ele>
        <time>2014-05-30T14:01:00Z</time>
      </trkpt>
      <trkpt lat="45.17166" lon="0.58861">
        <ele>81.8</ele>
        <time>2014-05-30T14:01:06Z</time>
      </trkpt>
      <trkpt lat="45.17167" lon="0.58911">
        <ele>80.6</ele>
        <time>2014-05-30T14:01:12Z</time>
      </trkpt>
      <trkpt lat="45.17176" lon="0.58959">
        <ele>80.89</ele>
        <time>2014-05-30T14:01:18Z</time>
      </trkpt>
      <trkpt lat="45.17184" lon="0.59005">
        <ele>79.5</ele>
        <time>2014-05-30T14:01:23Z</time>
      </trkpt>
      <trkpt lat="45.172" lon="0.59061">
        <ele>78.9</ele>
        <time>2014-05-30T14:01:29Z</time>
      </trkpt>
      <trkpt lat="45.17218" lon="0.59114">
        <ele>77.09</ele>
        <time>2014-05-30T14:01:35Z</time>
      </trkpt>
      <trkpt lat="45.17233" lon="0.59162">
        <ele>72.9</ele>
        <time>2014-05-30T14:01:40Z</time>
      </trkpt>
      <trkpt lat="45.17253" lon="0.59213">
        <ele>72.19</ele>
        <time>2014-05-30T14:01:46Z</time>
      </trkpt>
      <trkpt lat="45.1724" lon="0.5926">
        <ele>71.3</ele>
        <time>2014-05-30T14:01:52Z</time>
      </trkpt>
      <trkpt lat="45.17226" lon="0.59275">
        <ele>71.3</ele>
        <time>2014-05-30T14:01:55Z</time>
      </trkpt>
      <trkpt lat="45.17212" lon="0.59289">
        <ele>70.5</ele>
        <time>2014-05-30T14:01:58Z</time>
      </trkpt>
      <trkpt lat="45.17188" lon="0.59314">
        <ele>73.09</ele>
        <time>2014-05-30T14:02:03Z</time>
      </trkpt>
      <trkpt lat="45.17159" lon="0.59342">
        <ele>71.4</ele>
        <time>2014-05-30T14:02:09Z</time>
      </trkpt>
      <trkpt lat="45.17132" lon="0.59366">
        <ele>74.69</ele>
        <time>2014-05-30T14:02:14Z</time>
      </trkpt>
      <trkpt lat="45.17118" lon="0.59379">
        <ele>74.19</ele>
        <time>2014-05-30T14:02:17Z</time>
      </trkpt>
      <trkpt lat="45.17095" lon="0.59409">
        <ele>77.4</ele>
        <time>2014-05-30T14:02:24Z</time>
      </trkpt>
      <trkpt lat="45.17103" lon="0.59413">
        <ele>71.3</ele>
        <time>2014-05-30T14:02:30Z</time>
      </trkpt>
      <trkpt lat="45.17129" lon="0.59413">
        <ele>69.9</ele>
        <time>2014-05-30T14:02:36Z</time>
      </trkpt>
      <trkpt lat="45.17148" lon="0.59445">
        <ele>67</ele>
        <time>2014-05-30T14:02:42Z</time>
      </trkpt>
      <trkpt lat="45.17158" lon="0.59481">
        <ele>66.19</ele>
        <time>2014-05-30T14:02:47Z</time>
      </trkpt>
      <trkpt lat="45.17174" lon="0.59521">
        <ele>64.3</ele>
        <time>2014-05-30T14:02:53Z</time>
      </trkpt>
      <trkpt lat="45.17185" lon="0.59555">
        <ele>65.8</ele>
        <time>2014-05-30T14:02:58Z</time>
      </trkpt>
      <trkpt lat="45.17192" lon="0.59574">
        <ele>67.09</ele>
        <time>2014-05-30T14:03:01Z</time>
      </trkpt>
      <trkpt lat="45.17204" lon="0.59615">
        <ele>68.19</ele>
        <time>2014-05-30T14:03:07Z</time>
      </trkpt>
      <trkpt lat="45.1721" lon="0.59645">
        <ele>65.4</ele>
        <time>2014-05-30T14:03:12Z</time>
      </trkpt>
      <trkpt lat="45.17218" lon="0.59685">
        <ele>70.19</ele>
        <time>2014-05-30T14:03:18Z</time>
      </trkpt>
      <trkpt lat="45.17228" lon="0.59715">
        <ele>75</ele>
        <time>2014-05-30T14:03:24Z</time>
      </trkpt>
      <trkpt lat="45.17245" lon="0.59749">
        <ele>85.69</ele>
        <time>2014-05-30T14:03:31Z</time>
      </trkpt>
      <trkpt lat="45.17261" lon="0.59771">
        <ele>80.6</ele>
        <time>2014-05-30T14:03:36Z</time>
      </trkpt>
      <trkpt lat="45.17288" lon="0.59803">
        <ele>71.59</ele>
        <time>2014-05-30T14:03:42Z</time>
      </trkpt>
      <trkpt lat="45.17307" lon="0.5984">
        <ele>70.09</ele>
        <time>2014-05-30T14:03:49Z</time>
      </trkpt>
      <trkpt lat="45.17318" lon="0.59867">
        <ele>65.69</ele>
        <time>2014-05-30T14:03:54Z</time>
      </trkpt>
      <trkpt lat="45.17336" lon="0.599">
        <ele>65.4</ele>
        <time>2014-05-30T14:04:00Z</time>
      </trkpt>
      <trkpt lat="45.1735" lon="0.59933">
        <ele>65.69</ele>
        <time>2014-05-30T14:04:06Z</time>
      </trkpt>
      <trkpt lat="45.1736" lon="0.5996">
        <ele>64.8</ele>
        <time>2014-05-30T14:04:12Z</time>
      </trkpt>
      <trkpt lat="45.17374" lon="0.59984">
        <ele>67</ele>
        <time>2014-05-30T14:04:18Z</time>
      </trkpt>
      <trkpt lat="45.17378" lon="0.59994">
        <ele>66.19</ele>
        <time>2014-05-30T14:04:21Z</time>
      </trkpt>
      <trkpt lat="45.17389" lon="0.60018">
        <ele>62.59</ele>
        <time>2014-05-30T14:04:28Z</time>
      </trkpt>
      <trkpt lat="45.17403" lon="0.60048">
        <ele>63.09</ele>
        <time>2014-05-30T14:04:36Z</time>
      </trkpt>
      <trkpt lat="45.17411" lon="0.60071">
        <ele>60.69</ele>
        <time>2014-05-30T14:04:42Z</time>
      </trkpt>
      <trkpt lat="45.17415" lon="0.60096">
        <ele>65.3</ele>
        <time>2014-05-30T14:04:48Z</time>
      </trkpt>
      <trkpt lat="45.17419" lon="0.60114">
        <ele>64.8</ele>
        <time>2014-05-30T14:04:53Z</time>
      </trkpt>
      <trkpt lat="45.17407" lon="0.60128">
        <ele>64.19</ele>
        <time>2014-05-30T14:04:59Z</time>
      </trkpt>
      <trkpt lat="45.17383" lon="0.60133">
        <ele>65.3</ele>
        <time>2014-05-30T14:05:06Z</time>
      </trkpt>
      <trkpt lat="45.17364" lon="0.60144">
        <ele>62.9</ele>
        <time>2014-05-30T14:05:13Z</time>
      </trkpt>
      <trkpt lat="45.17344" lon="0.60157">
        <ele>64.4</ele>
        <time>2014-05-30T14:05:19Z</time>
      </trkpt>
      <trkpt lat="45.17323" lon="0.60169">
        <ele>68.4</ele>
        <time>2014-05-30T14:05:25Z</time>
      </trkpt>
      <trkpt lat="45.17313" lon="0.60176">
        <ele>69.59</ele>
        <time>2014-05-30T14:05:28Z</time>
      </trkpt>
      <trkpt lat="45.17296" lon="0.60191">
        <ele>71.9</ele>
        <time>2014-05-30T14:05:33Z</time>
      </trkpt>
      <trkpt lat="45.17276" lon="0.60207">
        <ele>71.19</ele>
        <time>2014-05-30T14:05:38Z</time>
      </trkpt>
      <trkpt lat="45.17257" lon="0.60219">
        <ele>70.59</ele>
        <time>2014-05-30T14:05:43Z</time>
      </trkpt>
      <trkpt lat="45.17231" lon="0.60241">
        <ele>71.09</ele>
        <time>2014-05-30T14:05:50Z</time>
      </trkpt>
      <trkpt lat="45.17227" lon="0.60274">
        <ele>71.5</ele>
        <time>2014-05-30T14:05:56Z</time>
      </trkpt>
      <trkpt lat="45.17233" lon="0.60314">
        <ele>71.5</ele>
        <time>2014-05-30T14:06:02Z</time>
      </trkpt>
      <trkpt lat="45.17237" lon="0.60346">
        <ele>71.69</ele>
        <time>2014-05-30T14:06:07Z</time>
      </trkpt>
      <trkpt lat="45.17246" lon="0.60385">
        <ele>72.3</ele>
        <time>2014-05-30T14:06:13Z</time>
      </trkpt>
      <trkpt lat="45.17252" lon="0.60416">
        <ele>71.5</ele>
        <time>2014-05-30T14:06:18Z</time>
      </trkpt>
      <trkpt lat="45.17256" lon="0.60456">
        <ele>69.69</ele>
        <time>2014-05-30T14:06:24Z</time>
      </trkpt>
      <trkpt lat="45.17265" lon="0.60495">
        <ele>68.8</ele>
        <time>2014-05-30T14:06:30Z</time>
      </trkpt>
      <trkpt lat="45.17268" lon="0.60521">
        <ele>69.9</ele>
        <time>2014-05-30T14:06:34Z</time>
      </trkpt>
      <trkpt lat="45.17269" lon="0.60551">
        <ele>69.9</ele>
        <time>2014-05-30T14:06:39Z</time>
      </trkpt>
      <trkpt lat="45.17264" lon="0.60593">
        <ele>70.3</ele>
        <time>2014-05-30T14:06:46Z</time>
      </trkpt>
      <trkpt lat="45.17252" lon="0.60628">
        <ele>68.4</ele>
        <time>2014-05-30T14:06:53Z</time>
      </trkpt>
      <trkpt lat="45.17274" lon="0.60657">
        <ele>68.09</ele>
        <time>2014-05-30T14:06:59Z</time>
      </trkpt>
      <trkpt lat="45.1729" lon="0.60683">
        <ele>69.3</ele>
        <time>2014-05-30T14:07:04Z</time>
      </trkpt>
      <trkpt lat="45.1731" lon="0.60713">
        <ele>70.9</ele>
        <time>2014-05-30T14:07:10Z</time>
      </trkpt>
      <trkpt lat="45.1732" lon="0.60729">
        <ele>70.3</ele>
        <time>2014-05-30T14:07:13Z</time>
      </trkpt>
      <trkpt lat="45.17341" lon="0.6076">
        <ele>70.59</ele>
        <time>2014-05-30T14:07:19Z</time>
      </trkpt>
      <trkpt lat="45.17353" lon="0.6078">
        <ele>69.4</ele>
        <time>2014-05-30T14:07:23Z</time>
      </trkpt>
      <trkpt lat="45.1737" lon="0.60807">
        <ele>69.09</ele>
        <time>2014-05-30T14:07:28Z</time>
      </trkpt>
      <trkpt lat="45.17384" lon="0.60834">
        <ele>68.5</ele>
        <time>2014-05-30T14:07:33Z</time>
      </trkpt>
      <trkpt lat="45.17398" lon="0.60861">
        <ele>67</ele>
        <time>2014-05-30T14:07:38Z</time>
      </trkpt>
      <trkpt lat="45.17412" lon="0.60888">
        <ele>68.3</ele>
        <time>2014-05-30T14:07:43Z</time>
      </trkpt>
      <trkpt lat="45.1743" lon="0.60919">
        <ele>69.3</ele>
        <time>2014-05-30T14:07:49Z</time>
      </trkpt>
      <trkpt lat="45.17446" lon="0.60948">
        <ele>70.69</ele>
        <time>2014-05-30T14:07:55Z</time>
      </trkpt>
      <trkpt lat="45.17455" lon="0.60972">
        <ele>70.5</ele>
        <time>2014-05-30T14:08:00Z</time>
      </trkpt>
      <trkpt lat="45.1747" lon="0.60999">
        <ele>72</ele>
        <time>2014-05-30T14:08:06Z</time>
      </trkpt>
      <trkpt lat="45.17482" lon="0.61021">
        <ele>71</ele>
        <time>2014-05-30T14:08:11Z</time>
      </trkpt>
      <trkpt lat="45.17484" lon="0.61051">
        <ele>68.8</ele>
        <time>2014-05-30T14:08:18Z</time>
      </trkpt>
      <trkpt lat="45.17459" lon="0.61086">
        <ele>73.19</ele>
        <time>2014-05-30T14:08:27Z</time>
      </trkpt>
      <trkpt lat="45.17441" lon="0.61101">
        <ele>73.3</ele>
        <time>2014-05-30T14:08:33Z</time>
      </trkpt>
      <trkpt lat="45.17427" lon="0.61112">
        <ele>73.9</ele>
        <time>2014-05-30T14:08:39Z</time>
      </trkpt>
      <trkpt lat="45.17418" lon="0.61119">
        <ele>75.09</ele>
        <time>2014-05-30T14:08:44Z</time>
      </trkpt>
      <trkpt lat="45.17407" lon="0.61127">
        <ele>76.19</ele>
        <time>2014-05-30T14:08:51Z</time>
      </trkpt>
      <trkpt lat="45.17393" lon="0.61139">
        <ele>77.09</ele>
        <time>2014-05-30T14:09:01Z</time>
      </trkpt>
      <trkpt lat="45.17385" lon="0.61147">
        <ele>77.09</ele>
        <time>2014-05-30T14:09:12Z</time>
      </trkpt>
      <trkpt lat="45.17392" lon="0.6117">
        <ele>76.3</ele>
        <time>2014-05-30T14:09:19Z</time>
      </trkpt>
      <trkpt lat="45.17403" lon="0.6119">
        <ele>76.5</ele>
        <time>2014-05-30T14:09:24Z</time>
      </trkpt>
      <trkpt lat="45.17417" lon="0.61213">
        <ele>75.9</ele>
        <time>2014-05-30T14:09:30Z</time>
      </trkpt>
      <trkpt lat="45.17433" lon="0.61242">
        <ele>78.19</ele>
        <time>2014-05-30T14:09:37Z</time>
      </trkpt>
      <trkpt lat="45.17445" lon="0.61264">
        <ele>79.3</ele>
        <time>2014-05-30T14:09:42Z</time>
      </trkpt>
      <trkpt lat="45.17459" lon="0.6129">
        <ele>80.3</ele>
        <time>2014-05-30T14:09:48Z</time>
      </trkpt>
      <trkpt lat="45.17474" lon="0.61316">
        <ele>80.5</ele>
        <time>2014-05-30T14:09:54Z</time>
      </trkpt>
      <trkpt lat="45.17488" lon="0.6134">
        <ele>79.5</ele>
        <time>2014-05-30T14:09:59Z</time>
      </trkpt>
      <trkpt lat="45.17508" lon="0.61374">
        <ele>78.59</ele>
        <time>2014-05-30T14:10:05Z</time>
      </trkpt>
      <trkpt lat="45.17526" lon="0.61408">
        <ele>78.3</ele>
        <time>2014-05-30T14:10:11Z</time>
      </trkpt>
      <trkpt lat="45.17546" lon="0.61446">
        <ele>77.69</ele>
        <time>2014-05-30T14:10:17Z</time>
      </trkpt>
      <trkpt lat="45.17556" lon="0.61464">
        <ele>77.9</ele>
        <time>2014-05-30T14:10:20Z</time>
      </trkpt>
      <trkpt lat="45.17578" lon="0.61501">
        <ele>78.59</ele>
        <time>2014-05-30T14:10:26Z</time>
      </trkpt>
      <trkpt lat="45.176" lon="0.61539">
        <ele>77.09</ele>
        <time>2014-05-30T14:10:32Z</time>
      </trkpt>
      <trkpt lat="45.17611" lon="0.6156">
        <ele>77.09</ele>
        <time>2014-05-30T14:10:35Z</time>
      </trkpt>
      <trkpt lat="45.1763" lon="0.61594">
        <ele>75.09</ele>
        <time>2014-05-30T14:10:40Z</time>
      </trkpt>
      <trkpt lat="45.17651" lon="0.61634">
        <ele>76.9</ele>
        <time>2014-05-30T14:10:46Z</time>
      </trkpt>
      <trkpt lat="45.17669" lon="0.61671">
        <ele>77.09</ele>
        <time>2014-05-30T14:10:51Z</time>
      </trkpt>
      <trkpt lat="45.17693" lon="0.61712">
        <ele>75.9</ele>
        <time>2014-05-30T14:10:57Z</time>
      </trkpt>
      <trkpt lat="45.17706" lon="0.61734">
        <ele>76.3</ele>
        <time>2014-05-30T14:11:00Z</time>
      </trkpt>
      <trkpt lat="45.17728" lon="0.61775">
        <ele>77.69</ele>
        <time>2014-05-30T14:11:06Z</time>
      </trkpt>
      <trkpt lat="45.17739" lon="0.61795">
        <ele>76.69</ele>
        <time>2014-05-30T14:11:09Z</time>
      </trkpt>
      <trkpt lat="45.17748" lon="0.61812">
        <ele>77.3</ele>
        <time>2014-05-30T14:11:12Z</time>
      </trkpt>
      <trkpt lat="45.17757" lon="0.61828">
        <ele>77.5</ele>
        <time>2014-05-30T14:11:15Z</time>
      </trkpt>
      <trkpt lat="45.17772" lon="0.61856">
        <ele>77.69</ele>
        <time>2014-05-30T14:11:20Z</time>
      </trkpt>
      <trkpt lat="45.17788" lon="0.61885">
        <ele>78.9</ele>
        <time>2014-05-30T14:11:26Z</time>
      </trkpt>
      <trkpt lat="45.17806" lon="0.61919">
        <ele>77.5</ele>
        <time>2014-05-30T14:11:33Z</time>
      </trkpt>
      <trkpt lat="45.17825" lon="0.6195">
        <ele>80.5</ele>
        <time>2014-05-30T14:11:39Z</time>
      </trkpt>
      <trkpt lat="45.1784" lon="0.61983">
        <ele>79.39</ele>
        <time>2014-05-30T14:11:45Z</time>
      </trkpt>
      <trkpt lat="45.17855" lon="0.62006">
        <ele>78.9</ele>
        <time>2014-05-30T14:11:50Z</time>
      </trkpt>
      <trkpt lat="45.17868" lon="0.6203">
        <ele>78.5</ele>
        <time>2014-05-30T14:11:55Z</time>
      </trkpt>
      <trkpt lat="45.17881" lon="0.62055">
        <ele>78</ele>
        <time>2014-05-30T14:12:00Z</time>
      </trkpt>
      <trkpt lat="45.17894" lon="0.62078">
        <ele>78.5</ele>
        <time>2014-05-30T14:12:05Z</time>
      </trkpt>
      <trkpt lat="45.17909" lon="0.62105">
        <ele>79.5</ele>
        <time>2014-05-30T14:12:11Z</time>
      </trkpt>
      <trkpt lat="45.17922" lon="0.62128">
        <ele>80.5</ele>
        <time>2014-05-30T14:12:16Z</time>
      </trkpt>
      <trkpt lat="45.17935" lon="0.6215">
        <ele>82</ele>
        <time>2014-05-30T14:12:21Z</time>
      </trkpt>
      <trkpt lat="45.17942" lon="0.62163">
        <ele>82.3</ele>
        <time>2014-05-30T14:12:24Z</time>
      </trkpt>
      <trkpt lat="45.17957" lon="0.62191">
        <ele>81.3</ele>
        <time>2014-05-30T14:12:30Z</time>
      </trkpt>
      <trkpt lat="45.17964" lon="0.62205">
        <ele>82.39</ele>
        <time>2014-05-30T14:12:33Z</time>
      </trkpt>
      <trkpt lat="45.17972" lon="0.62218">
        <ele>83</ele>
        <time>2014-05-30T14:12:36Z</time>
      </trkpt>
      <trkpt lat="45.17985" lon="0.62241">
        <ele>83.19</ele>
        <time>2014-05-30T14:12:41Z</time>
      </trkpt>
      <trkpt lat="45.17992" lon="0.62254">
        <ele>83</ele>
        <time>2014-05-30T14:12:44Z</time>
      </trkpt>
      <trkpt lat="45.17999" lon="0.62267">
        <ele>83.19</ele>
        <time>2014-05-30T14:12:47Z</time>
      </trkpt>
      <trkpt lat="45.18012" lon="0.6229">
        <ele>82.69</ele>
        <time>2014-05-30T14:12:52Z</time>
      </trkpt>
      <trkpt lat="45.1802" lon="0.62303">
        <ele>83</ele>
        <time>2014-05-30T14:12:55Z</time>
      </trkpt>
      <trkpt lat="45.18027" lon="0.62317">
        <ele>84.1</ele>
        <time>2014-05-30T14:12:58Z</time>
      </trkpt>
      <trkpt lat="45.1804" lon="0.62339">
        <ele>84.1</ele>
        <time>2014-05-30T14:13:03Z</time>
      </trkpt>
      <trkpt lat="45.18047" lon="0.62353">
        <ele>83.69</ele>
        <time>2014-05-30T14:13:06Z</time>
      </trkpt>
      <trkpt lat="45.18062" lon="0.62381">
        <ele>85.69</ele>
        <time>2014-05-30T14:13:12Z</time>
      </trkpt>
      <trkpt lat="45.18071" lon="0.62393">
        <ele>85.1</ele>
        <time>2014-05-30T14:13:15Z</time>
      </trkpt>
      <trkpt lat="45.18084" lon="0.62405">
        <ele>84.69</ele>
        <time>2014-05-30T14:13:19Z</time>
      </trkpt>
      <trkpt lat="45.18094" lon="0.62415">
        <ele>85.6</ele>
        <time>2014-05-30T14:13:22Z</time>
      </trkpt>
      <trkpt lat="45.18105" lon="0.62427">
        <ele>86.1</ele>
        <time>2014-05-30T14:13:25Z</time>
      </trkpt>
      <trkpt lat="45.18122" lon="0.62442">
        <ele>83.6</ele>
        <time>2014-05-30T14:13:30Z</time>
      </trkpt>
      <trkpt lat="45.18142" lon="0.62458">
        <ele>83.5</ele>
        <time>2014-05-30T14:13:35Z</time>
      </trkpt>
      <trkpt lat="45.18166" lon="0.62475">
        <ele>83.69</ele>
        <time>2014-05-30T14:13:40Z</time>
      </trkpt>
      <trkpt lat="45.18195" lon="0.62497">
        <ele>83</ele>
        <time>2014-05-30T14:13:46Z</time>
      </trkpt>
      <trkpt lat="45.1822" lon="0.62516">
        <ele>81.69</ele>
        <time>2014-05-30T14:13:51Z</time>
      </trkpt>
      <trkpt lat="45.18252" lon="0.62543">
        <ele>78.3</ele>
        <time>2014-05-30T14:13:57Z</time>
      </trkpt>
      <trkpt lat="45.18281" lon="0.62578">
        <ele>79.19</ele>
        <time>2014-05-30T14:14:03Z</time>
      </trkpt>
      <trkpt lat="45.18299" lon="0.62612">
        <ele>77.3</ele>
        <time>2014-05-30T14:14:08Z</time>
      </trkpt>
      <trkpt lat="45.18321" lon="0.62653">
        <ele>76.5</ele>
        <time>2014-05-30T14:14:14Z</time>
      </trkpt>
      <trkpt lat="45.1833" lon="0.62675">
        <ele>76.8</ele>
        <time>2014-05-30T14:14:17Z</time>
      </trkpt>
      <trkpt lat="45.18336" lon="0.627">
        <ele>76.59</ele>
        <time>2014-05-30T14:14:20Z</time>
      </trkpt>
      <trkpt lat="45.1834" lon="0.6274">
        <ele>75.69</ele>
        <time>2014-05-30T14:14:25Z</time>
      </trkpt>
      <trkpt lat="45.18363" lon="0.62755">
        <ele>75</ele>
        <time>2014-05-30T14:14:30Z</time>
      </trkpt>
      <trkpt lat="45.18379" lon="0.6275">
        <ele>74.69</ele>
        <time>2014-05-30T14:14:33Z</time>
      </trkpt>
      <trkpt lat="45.18393" lon="0.62745">
        <ele>75.59</ele>
        <time>2014-05-30T14:14:36Z</time>
      </trkpt>
      <trkpt lat="45.18416" lon="0.62764">
        <ele>73.19</ele>
        <time>2014-05-30T14:14:41Z</time>
      </trkpt>
      <trkpt lat="45.18456" lon="0.6277">
        <ele>71.5</ele>
        <time>2014-05-30T14:14:47Z</time>
      </trkpt>
      <trkpt lat="45.18477" lon="0.62777">
        <ele>74</ele>
        <time>2014-05-30T14:14:50Z</time>
      </trkpt>
      <trkpt lat="45.18508" lon="0.62791">
        <ele>73.4</ele>
        <time>2014-05-30T14:14:56Z</time>
      </trkpt>
      <trkpt lat="45.18505" lon="0.62824">
        <ele>73.69</ele>
        <time>2014-05-30T14:15:01Z</time>
      </trkpt>
      <trkpt lat="45.18499" lon="0.62844">
        <ele>73.9</ele>
        <time>2014-05-30T14:15:04Z</time>
      </trkpt>
      <trkpt lat="45.18491" lon="0.62877">
        <ele>76.5</ele>
        <time>2014-05-30T14:15:09Z</time>
      </trkpt>
      <trkpt lat="45.18487" lon="0.62916">
        <ele>75.69</ele>
        <time>2014-05-30T14:15:16Z</time>
      </trkpt>
      <trkpt lat="45.18494" lon="0.62944">
        <ele>75.5</ele>
        <time>2014-05-30T14:15:21Z</time>
      </trkpt>
      <trkpt lat="45.18498" lon="0.62972">
        <ele>74.69</ele>
        <time>2014-05-30T14:15:26Z</time>
      </trkpt>
      <trkpt lat="45.18505" lon="0.63009">
        <ele>74.8</ele>
        <time>2014-05-30T14:15:32Z</time>
      </trkpt>
      <trkpt lat="45.18507" lon="0.6304">
        <ele>74.59</ele>
        <time>2014-05-30T14:15:37Z</time>
      </trkpt>
      <trkpt lat="45.18502" lon="0.63075">
        <ele>75.19</ele>
        <time>2014-05-30T14:15:43Z</time>
      </trkpt>
      <trkpt lat="45.185" lon="0.63115">
        <ele>76</ele>
        <time>2014-05-30T14:15:49Z</time>
      </trkpt>
      <trkpt lat="45.18494" lon="0.63147">
        <ele>76.4</ele>
        <time>2014-05-30T14:15:54Z</time>
      </trkpt>
      <trkpt lat="45.1849" lon="0.63173">
        <ele>78.19</ele>
        <time>2014-05-30T14:15:58Z</time>
      </trkpt>
      <trkpt lat="45.18486" lon="0.63214">
        <ele>79.39</ele>
        <time>2014-05-30T14:16:04Z</time>
      </trkpt>
      <trkpt lat="45.18487" lon="0.63235">
        <ele>77.4</ele>
        <time>2014-05-30T14:16:07Z</time>
      </trkpt>
      <trkpt lat="45.18489" lon="0.63269">
        <ele>77</ele>
        <time>2014-05-30T14:16:12Z</time>
      </trkpt>
      <trkpt lat="45.1849" lon="0.63307">
        <ele>75.4</ele>
        <time>2014-05-30T14:16:18Z</time>
      </trkpt>
      <trkpt lat="45.18508" lon="0.63331">
        <ele>73.8</ele>
        <time>2014-05-30T14:16:24Z</time>
      </trkpt>
      <trkpt lat="45.18533" lon="0.63347">
        <ele>73.5</ele>
        <time>2014-05-30T14:16:30Z</time>
      </trkpt>
      <trkpt lat="45.18554" lon="0.63361">
        <ele>73.3</ele>
        <time>2014-05-30T14:16:35Z</time>
      </trkpt>
      <trkpt lat="45.1858" lon="0.63377">
        <ele>72.4</ele>
        <time>2014-05-30T14:16:42Z</time>
      </trkpt>
      <trkpt lat="45.18598" lon="0.63384">
        <ele>75</ele>
        <time>2014-05-30T14:16:49Z</time>
      </trkpt>
      <trkpt lat="45.18603" lon="0.63353">
        <ele>72.9</ele>
        <time>2014-05-30T14:17:00Z</time>
      </trkpt>
      <trkpt lat="45.18595" lon="0.63329">
        <ele>66.69</ele>
        <time>2014-05-30T14:17:09Z</time>
      </trkpt>
      <trkpt lat="45.18595" lon="0.63325">
        <ele>67.09</ele>
        <time>2014-05-30T14:17:11Z</time>
      </trkpt>
      <trkpt lat="45.18595" lon="0.63325">
        <ele>79</ele>
        <time>2014-05-30T14:17:19Z</time>
      </trkpt>
      <trkpt lat="45.18595" lon="0.63325">
        <ele>79</ele>
        <time>2014-05-30T14:18:02Z</time>
      </trkpt>
      <trkpt lat="45.18582" lon="0.63309">
        <ele>72</ele>
        <time>2014-05-30T14:18:02Z</time>
      </trkpt>
      <trkpt lat="45.18582" lon="0.63309">
        <ele>79</ele>
        <time>2014-05-30T14:18:36Z</time>
      </trkpt>
      <trkpt lat="45.18582" lon="0.63309">
        <ele>79</ele>
        <time>2014-05-30T14:18:41Z</time>
      </trkpt>
    </trkseg>
  </trk>
</gpx>